Observation data for South Plains 3ENE on 12/08/2019      Previous  Date       Current Mesonet Observations  Soil Data  Daily Summary Page  Observations in Plain Language
KSP2 080600Z 22015KT 09/03 A2998 RMK A01 T00890026  RH  064%=      5-min Rain = 0
KSP2 080601Z 22012KT 09/03 A2998 RMK A01 T00890025  RH  064%=      5-min Rain = 0
KSP2 080602Z 22014KT 09/03 A2998 RMK A01 T00890026  RH  064%=      5-min Rain = 0
KSP2 080603Z 21013KT 09/03 A2998 RMK A01 T00890026  RH  064%=      5-min Rain = 0
KSP2 080604Z 22013KT 09/03 A2998 RMK A01 T00890026  RH  065%=      5-min Rain = 0
KSP2 080605Z 22014KT 09/03 A2998 RMK A01 T00880025  RH  065%=      5-min Rain = 0
KSP2 080606Z 22013KT 09/03 A2998 RMK A01 T00880025  RH  065%=      5-min Rain = 0
KSP2 080607Z 22013KT 09/03 A2998 RMK A01 T00880025  RH  065%=      5-min Rain = 0
KSP2 080608Z 21014KT 09/03 A2998 RMK A01 T00870025  RH  065%=      5-min Rain = 0
KSP2 080609Z 21014KT 09/03 A2998 RMK A01 T00870025  RH  065%=      5-min Rain = 0
KSP2 080610Z 21014KT 09/03 A2998 RMK A01 T00870025  RH  065%=      5-min Rain = 0
KSP2 080611Z 21014KT 09/03 A2998 RMK A01 T00860025  RH  065%=      5-min Rain = 0
KSP2 080612Z 22012KT 09/03 A2998 RMK A01 T00860025  RH  066%=      5-min Rain = 0
KSP2 080613Z 21015KT 09/03 A2998 RMK A01 T00850025  RH  066%=      5-min Rain = 0
KSP2 080614Z 22013KT 09/03 A2998 RMK A01 T00850025  RH  066%=      5-min Rain = 0
KSP2 080615Z 22013KT 09/03 A2998 RMK A01 T00850025  RH  066%=      5-min Rain = 0
KSP2 080616Z 22012KT 08/03 A2998 RMK A01 T00840025  RH  066%=      5-min Rain = 0
KSP2 080617Z 21013KT 08/03 A2998 RMK A01 T00840025  RH  066%=      5-min Rain = 0
KSP2 080618Z 21013KT 08/03 A2998 RMK A01 T00840025  RH  067%=      5-min Rain = 0
KSP2 080619Z 22013KT 08/02 A2998 RMK A01 T00830024  RH  067%=      5-min Rain = 0
KSP2 080620Z 22013KT 08/03 A2998 RMK A01 T00830025  RH  067%=      5-min Rain = 0
KSP2 080621Z 22013KT 08/03 A2998 RMK A01 T00830025  RH  067%=      5-min Rain = 0
KSP2 080622Z 22012KT 08/03 A2998 RMK A01 T00830025  RH  067%=      5-min Rain = 0
KSP2 080623Z 22012KT 08/03 A2998 RMK A01 T00830025  RH  067%=      5-min Rain = 0
KSP2 080624Z 22012KT 08/02 A2998 RMK A01 T00830024  RH  067%=      5-min Rain = 0
KSP2 080625Z 21012KT 08/02 A2998 RMK A01 T00830024  RH  067%=      5-min Rain = 0
KSP2 080626Z 21011KT 08/03 A2997 RMK A01 T00830025  RH  067%=      5-min Rain = 0
KSP2 080627Z 22011KT 08/02 A2997 RMK A01 T00820024  RH  067%=      5-min Rain = 0
KSP2 080628Z 21011KT 08/02 A2997 RMK A01 T00820024  RH  067%=      5-min Rain = 0
KSP2 080629Z 21011KT 08/02 A2997 RMK A01 T00820024  RH  067%=      5-min Rain = 0
KSP2 080630Z 21012KT 08/03 A2997 RMK A01 T00820025  RH  067%=      5-min Rain = 0
KSP2 080631Z 21012KT 08/02 A2997 RMK A01 T00810024  RH  067%=      5-min Rain = 0
KSP2 080632Z 21012KT 08/02 A2997 RMK A01 T00810024  RH  067%=      5-min Rain = 0
KSP2 080633Z 21013KT 08/02 A2997 RMK A01 T00810024  RH  067%=      5-min Rain = 0
KSP2 080634Z 21012KT 08/02 A2997 RMK A01 T00810024  RH  067%=      5-min Rain = 0
KSP2 080635Z 21011KT 08/02 A2996 RMK A01 T00810024  RH  067%=      5-min Rain = 0
KSP2 080636Z 21013KT 08/02 A2996 RMK A01 T00810024  RH  067%=      5-min Rain = 0
KSP2 080637Z 21012KT 08/02 A2996 RMK A01 T00810024  RH  067%=      5-min Rain = 0
KSP2 080638Z 21012KT 08/02 A2996 RMK A01 T00800024  RH  068%=      5-min Rain = 0
KSP2 080639Z 21013KT 08/02 A2996 RMK A01 T00810024  RH  067%=      5-min Rain = 0
KSP2 080640Z 21013KT 08/02 A2996 RMK A01 T00810024  RH  067%=      5-min Rain = 0
KSP2 080641Z 21013KT 08/02 A2996 RMK A01 T00800024  RH  067%=      5-min Rain = 0
KSP2 080642Z 21013G18KT 08/02 A2996 RMK A01 T00810024  RH  067%=      5-min Rain = 0
KSP2 080643Z 21014KT 08/02 A2996 RMK A01 T00810024  RH  067%=      5-min Rain = 0
KSP2 080644Z 21014KT 08/02 A2996 RMK A01 T00810024  RH  067%=      5-min Rain = 0
KSP2 080645Z 21013KT 08/02 A2996 RMK A01 T00810024  RH  067%=      5-min Rain = 0
KSP2 080646Z 21013KT 08/02 A2996 RMK A01 T00800023  RH  067%=      5-min Rain = 0
KSP2 080647Z 21013KT 08/02 A2996 RMK A01 T00800023  RH  067%=      5-min Rain = 0
KSP2 080648Z 21013KT 08/02 A2996 RMK A01 T00800023  RH  067%=      5-min Rain = 0
KSP2 080649Z 21013KT 08/02 A2996 RMK A01 T00790023  RH  068%=      5-min Rain = 0
KSP2 080650Z 21014KT 08/02 A2996 RMK A01 T00790023  RH  068%=      5-min Rain = 0
KSP2 080651Z 21012KT 08/02 A2996 RMK A01 T00800023  RH  067%=      5-min Rain = 0
KSP2 080652Z 21014KT 08/02 A2996 RMK A01 T00800023  RH  067%=      5-min Rain = 0
KSP2 080653Z 21012KT 08/02 A2996 RMK A01 T00800023  RH  067%=      5-min Rain = 0
KSP2 080654Z 21012KT 08/02 A2996 RMK A01 T00800023  RH  067%=      5-min Rain = 0
KSP2 080655Z 21012KT 08/02 A2996 RMK A01 T00790023  RH  068%=      5-min Rain = 0
KSP2 080656Z 21011KT 08/02 A2996 RMK A01 T00780023  RH  068%=      5-min Rain = 0
KSP2 080657Z 21010KT 08/02 A2996 RMK A01 T00770023  RH  068%=      5-min Rain = 0
KSP2 080658Z 21011KT 08/02 A2996 RMK A01 T00770023  RH  068%=      5-min Rain = 0
KSP2 080659Z 21012KT 08/02 A2996 RMK A01 T00770023  RH  069%=      5-min Rain = 0
KSP2 080700Z 21011KT 08/02 A2996 RMK A01 T00760023  RH  069%=      5-min Rain = 0
KSP2 080701Z 21010KT 08/02 A2996 RMK A01 T00760023  RH  069%=      5-min Rain = 0
KSP2 080702Z 21013KT 08/02 A2996 RMK A01 T00750022  RH  069%=      5-min Rain = 0
KSP2 080703Z 21011KT 08/02 A2996 RMK A01 T00750023  RH  069%=      5-min Rain = 0
KSP2 080704Z 21011KT 08/02 A2996 RMK A01 T00750023  RH  069%=      5-min Rain = 0
KSP2 080705Z 21011KT 08/02 A2996 RMK A01 T00750023  RH  069%=      5-min Rain = 0
KSP2 080706Z 21012KT 07/02 A2996 RMK A01 T00740022  RH  070%=      5-min Rain = 0
KSP2 080707Z 21011KT 08/02 A2996 RMK A01 T00750023  RH  070%=      5-min Rain = 0
KSP2 080708Z 21011KT 07/02 A2995 RMK A01 T00740023  RH  070%=      5-min Rain = 0
KSP2 080709Z 21011KT 07/02 A2995 RMK A01 T00740023  RH  070%=      5-min Rain = 0
KSP2 080710Z 21012KT 07/02 A2995 RMK A01 T00740023  RH  070%=      5-min Rain = 0
KSP2 080711Z 21012KT 07/02 A2995 RMK A01 T00730023  RH  070%=      5-min Rain = 0
KSP2 080712Z 21012KT 07/02 A2995 RMK A01 T00730023  RH  070%=      5-min Rain = 0
KSP2 080713Z 21012KT 07/02 A2995 RMK A01 T00730022  RH  070%=      5-min Rain = 0
KSP2 080714Z 21011KT 07/02 A2995 RMK A01 T00720022  RH  070%=      5-min Rain = 0
KSP2 080715Z 21011KT 07/02 A2995 RMK A01 T00720022  RH  071%=      5-min Rain = 0
KSP2 080716Z 21012KT 07/02 A2995 RMK A01 T00720022  RH  071%=      5-min Rain = 0
KSP2 080717Z 21011KT 07/02 A2995 RMK A01 T00720022  RH  071%=      5-min Rain = 0
KSP2 080718Z 21011KT 07/02 A2995 RMK A01 T00720022  RH  071%=      5-min Rain = 0
KSP2 080719Z 21010KT 07/02 A2995 RMK A01 T00710022  RH  071%=      5-min Rain = 0
KSP2 080720Z 20011KT 07/02 A2995 RMK A01 T00710022  RH  071%=      5-min Rain = 0
KSP2 080721Z 20010KT 07/02 A2994 RMK A01 T00700022  RH  071%=      5-min Rain = 0
KSP2 080722Z 20009KT 07/02 A2994 RMK A01 T00700022  RH  071%=      5-min Rain = 0
KSP2 080723Z 20010KT 07/02 A2994 RMK A01 T00690021  RH  071%=      5-min Rain = 0
KSP2 080724Z 19011KT 07/02 A2994 RMK A01 T00680021  RH  072%=      5-min Rain = 0
KSP2 080725Z 20011KT 07/02 A2994 RMK A01 T00680021  RH  072%=      5-min Rain = 0
KSP2 080726Z 20010KT 07/02 A2994 RMK A01 T00680021  RH  072%=      5-min Rain = 0
KSP2 080727Z 20010KT 07/02 A2994 RMK A01 T00670021  RH  072%=      5-min Rain = 0
KSP2 080728Z 20009KT 07/02 A2994 RMK A01 T00660021  RH  073%=      5-min Rain = 0
KSP2 080729Z 20010KT 07/02 A2994 RMK A01 T00660020  RH  073%=      5-min Rain = 0
KSP2 080730Z 20010KT 07/02 A2994 RMK A01 T00650020  RH  073%=      5-min Rain = 0
KSP2 080731Z 20010KT 07/02 A2994 RMK A01 T00650020  RH  073%=      5-min Rain = 0
KSP2 080732Z 20009KT 06/02 A2994 RMK A01 T00640020  RH  073%=      5-min Rain = 0
KSP2 080733Z 20009KT 06/02 A2994 RMK A01 T00640020  RH  074%=      5-min Rain = 0
KSP2 080734Z 20010KT 06/02 A2994 RMK A01 T00640020  RH  073%=      5-min Rain = 0
KSP2 080735Z 20009KT 06/02 A2994 RMK A01 T00640020  RH  073%=      5-min Rain = 0
KSP2 080736Z 20009KT 07/02 A2994 RMK A01 T00650021  RH  073%=      5-min Rain = 0
KSP2 080737Z 20009KT 06/02 A2994 RMK A01 T00640020  RH  073%=      5-min Rain = 0
KSP2 080738Z 20009KT 06/02 A2994 RMK A01 T00640021  RH  074%=      5-min Rain = 0
KSP2 080739Z 20009KT 06/02 A2994 RMK A01 T00640020  RH  074%=      5-min Rain = 0
KSP2 080740Z 20009KT 06/02 A2994 RMK A01 T00640021  RH  074%=      5-min Rain = 0
KSP2 080741Z 20008KT 06/02 A2994 RMK A01 T00640020  RH  074%=      5-min Rain = 0
KSP2 080742Z 20008KT 06/02 A2994 RMK A01 T00640020  RH  074%=      5-min Rain = 0
KSP2 080743Z 20009KT 06/02 A2994 RMK A01 T00640020  RH  074%=      5-min Rain = 0
KSP2 080744Z 20008KT 06/02 A2994 RMK A01 T00630020  RH  074%=      5-min Rain = 0
KSP2 080745Z 20008KT 06/02 A2994 RMK A01 T00630020  RH  074%=      5-min Rain = 0
KSP2 080746Z 20009KT 06/02 A2994 RMK A01 T00640021  RH  074%=      5-min Rain = 0
KSP2 080747Z 20009KT 07/02 A2994 RMK A01 T00650021  RH  074%=      5-min Rain = 0
KSP2 080748Z 20008KT 07/02 A2993 RMK A01 T00650021  RH  073%=      5-min Rain = 0
KSP2 080749Z 20008KT 07/02 A2993 RMK A01 T00650021  RH  073%=      5-min Rain = 0
KSP2 080750Z 21008KT 07/02 A2993 RMK A01 T00650021  RH  073%=      5-min Rain = 0
KSP2 080751Z 20008KT 06/02 A2994 RMK A01 T00640020  RH  073%=      5-min Rain = 0
KSP2 080752Z 21007KT 07/02 A2993 RMK A01 T00650021  RH  074%=      5-min Rain = 0
KSP2 080753Z 21007KT 06/02 A2993 RMK A01 T00640020  RH  074%=      5-min Rain = 0
KSP2 080754Z 21008KT 06/02 A2993 RMK A01 T00640020  RH  074%=      5-min Rain = 0
KSP2 080755Z 21008KT 06/02 A2993 RMK A01 T00640020  RH  074%=      5-min Rain = 0
KSP2 080756Z 22007KT 06/02 A2994 RMK A01 T00640020  RH  074%=      5-min Rain = 0
KSP2 080757Z 22007KT 06/02 A2994 RMK A01 T00630020  RH  074%=      5-min Rain = 0
KSP2 080758Z 22007KT 06/02 A2994 RMK A01 T00630020  RH  074%=      5-min Rain = 0
KSP2 080759Z 21007KT 06/02 A2994 RMK A01 T00640020  RH  074%=      5-min Rain = 0
KSP2 080800Z 21008KT 06/02 A2994 RMK A01 T00640020  RH  074%=      5-min Rain = 0
KSP2 080801Z 22009KT 06/02 A2994 RMK A01 T00640020  RH  074%=      5-min Rain = 0
KSP2 080802Z 22009KT 06/02 A2993 RMK A01 T00640020  RH  074%=      5-min Rain = 0
KSP2 080803Z 21008KT 06/02 A2994 RMK A01 T00640020  RH  074%=      5-min Rain = 0
KSP2 080804Z 22008KT 06/02 A2994 RMK A01 T00630020  RH  074%=      5-min Rain = 0
KSP2 080805Z 21008KT 06/02 A2994 RMK A01 T00630020  RH  074%=      5-min Rain = 0
KSP2 080806Z 22008KT 06/02 A2994 RMK A01 T00630019  RH  074%=      5-min Rain = 0
KSP2 080807Z 22008KT 06/02 A2994 RMK A01 T00630020  RH  074%=      5-min Rain = 0
KSP2 080808Z 22009KT 06/02 A2994 RMK A01 T00620020  RH  074%=      5-min Rain = 0
KSP2 080809Z 21008KT 06/02 A2994 RMK A01 T00620020  RH  074%=      5-min Rain = 0
KSP2 080810Z 21009KT 06/02 A2994 RMK A01 T00620020  RH  074%=      5-min Rain = 0
KSP2 080811Z 21009KT 06/02 A2994 RMK A01 T00620020  RH  074%=      5-min Rain = 0
KSP2 080812Z 21008KT 06/02 A2994 RMK A01 T00620020  RH  074%=      5-min Rain = 0
KSP2 080813Z 21008KT 06/02 A2994 RMK A01 T00620019  RH  074%=      5-min Rain = 0
KSP2 080814Z 21007KT 06/02 A2994 RMK A01 T00610019  RH  074%=      5-min Rain = 0
KSP2 080815Z 21007KT 06/02 A2993 RMK A01 T00600019  RH  075%=      5-min Rain = 0
KSP2 080816Z 21006KT 06/02 A2993 RMK A01 T00600018  RH  075%=      5-min Rain = 0
KSP2 080817Z 20007KT 06/02 A2993 RMK A01 T00600019  RH  075%=      5-min Rain = 0
KSP2 080818Z 21007KT 06/02 A2993 RMK A01 T00600019  RH  075%=      5-min Rain = 0
KSP2 080819Z 21007KT 06/02 A2993 RMK A01 T00600019  RH  075%=      5-min Rain = 0
KSP2 080820Z 21007KT 06/02 A2993 RMK A01 T00590018  RH  075%=      5-min Rain = 0
KSP2 080821Z 21007KT 06/02 A2993 RMK A01 T00590018  RH  075%=      5-min Rain = 0
KSP2 080822Z 21007KT 06/02 A2993 RMK A01 T00590018  RH  075%=      5-min Rain = 0
KSP2 080823Z 21008KT 06/02 A2993 RMK A01 T00590018  RH  075%=      5-min Rain = 0
KSP2 080824Z 21008KT 06/02 A2993 RMK A01 T00590018  RH  075%=      5-min Rain = 0
KSP2 080825Z 21007KT 06/02 A2994 RMK A01 T00590018  RH  075%=      5-min Rain = 0
KSP2 080826Z 21007KT 06/02 A2994 RMK A01 T00590018  RH  075%=      5-min Rain = 0
KSP2 080827Z 21008KT 06/02 A2994 RMK A01 T00580018  RH  075%=      5-min Rain = 0
KSP2 080828Z 21008KT 06/02 A2994 RMK A01 T00580018  RH  075%=      5-min Rain = 0
KSP2 080829Z 21008KT 06/02 A2994 RMK A01 T00590018  RH  075%=      5-min Rain = 0
KSP2 080830Z 21009KT 06/02 A2994 RMK A01 T00590018  RH  075%=      5-min Rain = 0
KSP2 080831Z 21008KT 06/02 A2994 RMK A01 T00590019  RH  075%=      5-min Rain = 0
KSP2 080832Z 21009KT 06/02 A2994 RMK A01 T00600019  RH  075%=      5-min Rain = 0
KSP2 080833Z 21008KT 06/02 A2994 RMK A01 T00590019  RH  075%=      5-min Rain = 0
KSP2 080834Z 21007KT 06/02 A2994 RMK A01 T00590019  RH  075%=      5-min Rain = 0
KSP2 080835Z 21008KT 06/02 A2994 RMK A01 T00590019  RH  075%=      5-min Rain = 0
KSP2 080836Z 21008KT 06/02 A2994 RMK A01 T00590018  RH  075%=      5-min Rain = 0
KSP2 080837Z 21008KT 06/02 A2994 RMK A01 T00590018  RH  075%=      5-min Rain = 0
KSP2 080838Z 21008KT 06/02 A2993 RMK A01 T00590018  RH  075%=      5-min Rain = 0
KSP2 080839Z 21008KT 06/02 A2993 RMK A01 T00590019  RH  075%=      5-min Rain = 0
KSP2 080840Z 21007KT 06/02 A2993 RMK A01 T00590018  RH  075%=      5-min Rain = 0
KSP2 080841Z 20008KT 06/02 A2993 RMK A01 T00580018  RH  075%=      5-min Rain = 0
KSP2 080842Z 21008KT 06/02 A2993 RMK A01 T00580018  RH  075%=      5-min Rain = 0
KSP2 080843Z 21008KT 06/02 A2993 RMK A01 T00580018  RH  075%=      5-min Rain = 0
KSP2 080844Z 21007KT 06/02 A2993 RMK A01 T00580018  RH  075%=      5-min Rain = 0
KSP2 080845Z 21008KT 06/02 A2993 RMK A01 T00580018  RH  075%=      5-min Rain = 0
KSP2 080846Z 21008KT 06/02 A2993 RMK A01 T00580018  RH  075%=      5-min Rain = 0
KSP2 080847Z 21009KT 06/02 A2993 RMK A01 T00580018  RH  075%=      5-min Rain = 0
KSP2 080848Z 21008KT 06/02 A2993 RMK A01 T00580018  RH  076%=      5-min Rain = 0
KSP2 080849Z 21008KT 06/02 A2993 RMK A01 T00580019  RH  076%=      5-min Rain = 0
KSP2 080850Z 21008KT 06/02 A2993 RMK A01 T00590019  RH  076%=      5-min Rain = 0
KSP2 080851Z 21008KT 06/02 A2993 RMK A01 T00590020  RH  076%=      5-min Rain = 0
KSP2 080852Z 21008KT 06/02 A2993 RMK A01 T00600020  RH  076%=      5-min Rain = 0
KSP2 080853Z 21008KT 06/02 A2993 RMK A01 T00600020  RH  075%=      5-min Rain = 0
KSP2 080854Z 22007KT 06/02 A2992 RMK A01 T00610021  RH  075%=      5-min Rain = 0
KSP2 080855Z 22009KT 06/02 A2992 RMK A01 T00620021  RH  075%=      5-min Rain = 0
KSP2 080856Z 22009KT 06/02 A2992 RMK A01 T00640021  RH  074%=      5-min Rain = 0
KSP2 080857Z 22009KT 06/02 A2992 RMK A01 T00640021  RH  074%=      5-min Rain = 0
KSP2 080858Z 22009KT 07/02 A2992 RMK A01 T00650022  RH  074%=      5-min Rain = 0
KSP2 080859Z 22009KT 07/02 A2992 RMK A01 T00660022  RH  073%=      5-min Rain = 0
KSP2 080900Z 22009KT 07/02 A2992 RMK A01 T00670022  RH  073%=      5-min Rain = 0
KSP2 080901Z 22010KT 07/02 A2992 RMK A01 T00680023  RH  073%=      5-min Rain = 0
KSP2 080902Z 22010KT 07/02 A2992 RMK A01 T00680023  RH  073%=      5-min Rain = 0
KSP2 080903Z 22010KT 07/02 A2992 RMK A01 T00690023  RH  072%=      5-min Rain = 0
KSP2 080904Z 22010KT 07/02 A2992 RMK A01 T00690022  RH  072%=      5-min Rain = 0
KSP2 080905Z 22011KT 07/02 A2992 RMK A01 T00690022  RH  072%=      5-min Rain = 0
KSP2 080906Z 22011KT 07/02 A2992 RMK A01 T00700023  RH  072%=      5-min Rain = 0
KSP2 080907Z 22010KT 07/02 A2992 RMK A01 T00710023  RH  071%=      5-min Rain = 0
KSP2 080908Z 22010KT 07/02 A2992 RMK A01 T00710023  RH  071%=      5-min Rain = 0
KSP2 080909Z 22009KT 07/02 A2992 RMK A01 T00710023  RH  071%=      5-min Rain = 0
KSP2 080910Z 23009KT 07/02 A2992 RMK A01 T00710023  RH  071%=      5-min Rain = 0
KSP2 080911Z 23010KT 07/02 A2992 RMK A01 T00710023  RH  072%=      5-min Rain = 0
KSP2 080912Z 23009KT 07/02 A2992 RMK A01 T00710023  RH  072%=      5-min Rain = 0
KSP2 080913Z 22010KT 07/02 A2992 RMK A01 T00710023  RH  072%=      5-min Rain = 0
KSP2 080914Z 23011KT 07/02 A2992 RMK A01 T00710023  RH  072%=      5-min Rain = 0
KSP2 080915Z 23011KT 07/02 A2992 RMK A01 T00710023  RH  072%=      5-min Rain = 0
KSP2 080916Z 23011KT 07/02 A2991 RMK A01 T00720024  RH  072%=      5-min Rain = 0
KSP2 080917Z 23012KT 07/02 A2991 RMK A01 T00720024  RH  071%=      5-min Rain = 0
KSP2 080918Z 23010KT 07/02 A2992 RMK A01 T00730024  RH  071%=      5-min Rain = 0
KSP2 080919Z 23011KT 07/02 A2991 RMK A01 T00730024  RH  071%=      5-min Rain = 0
KSP2 080920Z 23011KT 07/03 A2992 RMK A01 T00730025  RH  071%=      5-min Rain = 0
KSP2 080921Z 23010KT 07/03 A2992 RMK A01 T00740025  RH  071%=      5-min Rain = 0
KSP2 080922Z 23011KT 08/03 A2992 RMK A01 T00750025  RH  071%=      5-min Rain = 0
KSP2 080923Z 23011KT 08/03 A2991 RMK A01 T00750025  RH  071%=      5-min Rain = 0
KSP2 080924Z 23011KT 08/03 A2991 RMK A01 T00760026  RH  071%=      5-min Rain = 0
KSP2 080925Z 23011KT 08/03 A2991 RMK A01 T00750026  RH  071%=      5-min Rain = 0
KSP2 080926Z 23012KT 08/03 A2991 RMK A01 T00750026  RH  071%=      5-min Rain = 0
KSP2 080927Z 23012KT 08/03 A2991 RMK A01 T00750026  RH  071%=      5-min Rain = 0
KSP2 080928Z 23010KT 08/03 A2991 RMK A01 T00750026  RH  071%=      5-min Rain = 0
KSP2 080929Z 23011KT 08/03 A2991 RMK A01 T00750026  RH  071%=      5-min Rain = 0
KSP2 080930Z 23011KT 08/03 A2991 RMK A01 T00760026  RH  071%=      5-min Rain = 0
KSP2 080931Z 23010KT 08/03 A2991 RMK A01 T00770027  RH  071%=      5-min Rain = 0
KSP2 080932Z 23010KT 08/03 A2991 RMK A01 T00770027  RH  071%=      5-min Rain = 0
KSP2 080933Z 23011KT 08/03 A2992 RMK A01 T00770027  RH  071%=      5-min Rain = 0
KSP2 080934Z 23011KT 08/03 A2991 RMK A01 T00780028  RH  070%=      5-min Rain = 0
KSP2 080935Z 23011KT 08/03 A2991 RMK A01 T00790028  RH  070%=      5-min Rain = 0
KSP2 080936Z 23012KT 08/03 A2991 RMK A01 T00790028  RH  070%=      5-min Rain = 0
KSP2 080937Z 23011KT 08/03 A2991 RMK A01 T00810029  RH  070%=      5-min Rain = 0
KSP2 080938Z 23010KT 08/03 A2991 RMK A01 T00820029  RH  069%=      5-min Rain = 0
KSP2 080939Z 23012KT 08/03 A2991 RMK A01 T00820029  RH  069%=      5-min Rain = 0
KSP2 080940Z 23012KT 08/03 A2991 RMK A01 T00830030  RH  069%=      5-min Rain = 0
KSP2 080941Z 23012KT 08/03 A2991 RMK A01 T00840030  RH  069%=      5-min Rain = 0
KSP2 080942Z 24014KT 09/03 A2991 RMK A01 T00860031  RH  068%=      5-min Rain = 0
KSP2 080943Z 23012KT 09/03 A2991 RMK A01 T00870031  RH  068%=      5-min Rain = 0
KSP2 080944Z 23014KT 09/03 A2991 RMK A01 T00880031  RH  067%=      5-min Rain = 0
KSP2 080945Z 23012KT 09/03 A2992 RMK A01 T00900031  RH  067%=      5-min Rain = 0
KSP2 080946Z 24012KT 09/03 A2991 RMK A01 T00920032  RH  066%=      5-min Rain = 0
KSP2 080947Z 23011KT 09/03 A2991 RMK A01 T00940032  RH  065%=      5-min Rain = 0
KSP2 080948Z 24011KT 10/03 A2991 RMK A01 T00950032  RH  065%=      5-min Rain = 0
KSP2 080949Z 24012KT 10/03 A2991 RMK A01 T00960032  RH  064%=      5-min Rain = 0
KSP2 080950Z 24012KT 10/03 A2991 RMK A01 T00980033  RH  064%=      5-min Rain = 0
KSP2 080951Z 24012KT 10/03 A2991 RMK A01 T00980032  RH  063%=      5-min Rain = 0
KSP2 080952Z 23011KT 10/03 A2991 RMK A01 T00990032  RH  063%=      5-min Rain = 0
KSP2 080953Z 24010KT 10/03 A2991 RMK A01 T00990033  RH  063%=      5-min Rain = 0
KSP2 080954Z 24011KT 10/03 A2991 RMK A01 T00990033  RH  063%=      5-min Rain = 0
KSP2 080955Z 24012KT 10/03 A2991 RMK A01 T00990032  RH  063%=      5-min Rain = 0
KSP2 080956Z 24012KT 10/03 A2991 RMK A01 T01000032  RH  063%=      5-min Rain = 0
KSP2 080957Z 24012KT 10/03 A2991 RMK A01 T01000032  RH  063%=      5-min Rain = 0
KSP2 080958Z 23013KT 10/03 A2991 RMK A01 T01010033  RH  063%=      5-min Rain = 0
KSP2 080959Z 24012KT 10/03 A299 RMK A01 T01010033  RH  062%=      5-min Rain = 0
KSP2 081000Z 23013KT 10/03 A299 RMK A01 T01020033  RH  062%=      5-min Rain = 0
KSP2 081001Z 23012KT 10/03 A299 RMK A01 T01030033  RH  062%=      5-min Rain = 0
KSP2 081002Z 24012KT 10/03 A299 RMK A01 T01030033  RH  062%=      5-min Rain = 0
KSP2 081003Z 22013G20KT 10/03 A299 RMK A01 T01030033  RH  062%=      5-min Rain = 0
KSP2 081004Z 23014KT 10/03 A299 RMK A01 T01040033  RH  062%=      5-min Rain = 0
KSP2 081005Z 23012KT 10/03 A299 RMK A01 T01040033  RH  061%=      5-min Rain = 0
KSP2 081006Z 23014KT 10/03 A299 RMK A01 T01040033  RH  061%=      5-min Rain = 0
KSP2 081007Z 24013KT 11/03 A299 RMK A01 T01050033  RH  061%=      5-min Rain = 0
KSP2 081008Z 23014KT 11/03 A299 RMK A01 T01060033  RH  061%=      5-min Rain = 0
KSP2 081009Z 23011G17KT 11/03 A299 RMK A01 T01070033  RH  060%=      5-min Rain = 0
KSP2 081010Z 23017G22KT 11/03 A299 RMK A01 T01070033  RH  060%=      5-min Rain = 0
KSP2 081011Z 24016KT 11/03 A299 RMK A01 T01080033  RH  060%=      5-min Rain = 0
KSP2 081012Z 23017KT 11/03 A299 RMK A01 T01090033  RH  059%=      5-min Rain = 0
KSP2 081013Z 23016KT 11/03 A299 RMK A01 T01090033  RH  059%=      5-min Rain = 0
KSP2 081014Z 24012G19KT 11/03 A299 RMK A01 T01100033  RH  059%=      5-min Rain = 0
KSP2 081015Z 24014KT 11/03 A299 RMK A01 T01100033  RH  059%=      5-min Rain = 0
KSP2 081016Z 24014KT 11/03 A299 RMK A01 T01100033  RH  059%=      5-min Rain = 0
KSP2 081017Z 23015KT 11/03 A299 RMK A01 T01100033  RH  059%=      5-min Rain = 0
KSP2 081018Z 24014G19KT 11/03 A299 RMK A01 T01090033  RH  059%=      5-min Rain = 0
KSP2 081019Z 24013KT 11/03 A299 RMK A01 T01080033  RH  060%=      5-min Rain = 0
KSP2 081020Z 24014KT 11/03 A299 RMK A01 T01070033  RH  060%=      5-min Rain = 0
KSP2 081021Z 24013G19KT 11/03 A299 RMK A01 T01070033  RH  060%=      5-min Rain = 0
KSP2 081022Z 24015KT 11/03 A299 RMK A01 T01070033  RH  060%=      5-min Rain = 0
KSP2 081023Z 24015KT 11/03 A299 RMK A01 T01060033  RH  060%=      5-min Rain = 0
KSP2 081024Z 24014KT 11/03 A299 RMK A01 T01070033  RH  060%=      5-min Rain = 0
KSP2 081025Z 24013KT 11/03 A299 RMK A01 T01070033  RH  060%=      5-min Rain = 0
KSP2 081026Z 24014KT 11/03 A299 RMK A01 T01080033  RH  060%=      5-min Rain = 0
KSP2 081027Z 24014KT 11/03 A2989 RMK A01 T01070033  RH  060%=      5-min Rain = 0
KSP2 081028Z 23015KT 11/03 A2989 RMK A01 T01070033  RH  060%=      5-min Rain = 0
KSP2 081029Z 24012KT 11/03 A2989 RMK A01 T01070033  RH  060%=      5-min Rain = 0
KSP2 081030Z 23012KT 11/03 A2989 RMK A01 T01070033  RH  060%=      5-min Rain = 0
KSP2 081031Z 24011KT 11/03 A2989 RMK A01 T01070033  RH  060%=      5-min Rain = 0
KSP2 081032Z 24015G20KT 11/03 A2989 RMK A01 T01070033  RH  060%=      5-min Rain = 0
KSP2 081033Z 24014KT 11/03 A2989 RMK A01 T01080034  RH  060%=      5-min Rain = 0
KSP2 081034Z 24013G18KT 11/03 A2989 RMK A01 T01100034  RH  060%=      5-min Rain = 0
KSP2 081035Z 24014KT 11/03 A2989 RMK A01 T01110034  RH  059%=      5-min Rain = 0
KSP2 081036Z 24013KT 11/03 A2988 RMK A01 T01110034  RH  059%=      5-min Rain = 0
KSP2 081037Z 24014KT 11/03 A2988 RMK A01 T01120034  RH  059%=      5-min Rain = 0
KSP2 081038Z 23013KT 11/03 A2988 RMK A01 T01130034  RH  058%=      5-min Rain = 0
KSP2 081039Z 23014KT 11/03 A2988 RMK A01 T01130034  RH  058%=      5-min Rain = 0
KSP2 081040Z 23013KT 11/03 A2988 RMK A01 T01130033  RH  058%=      5-min Rain = 0
KSP2 081041Z 24012KT 11/03 A2988 RMK A01 T01130033  RH  058%=      5-min Rain = 0
KSP2 081042Z 23011KT 11/03 A2988 RMK A01 T01130033  RH  058%=      5-min Rain = 0
KSP2 081043Z 23015KT 11/03 A2988 RMK A01 T01130034  RH  058%=      5-min Rain = 0
KSP2 081044Z 24013KT 11/03 A2988 RMK A01 T01140034  RH  058%=      5-min Rain = 0
KSP2 081045Z 23013KT 12/03 A2988 RMK A01 T01150033  RH  057%=      5-min Rain = 0
KSP2 081046Z 23015KT 12/03 A2988 RMK A01 T01150033  RH  057%=      5-min Rain = 0
KSP2 081047Z 23012KT 12/03 A2988 RMK A01 T01150033  RH  057%=      5-min Rain = 0
KSP2 081048Z 23011KT 12/03 A2988 RMK A01 T01150033  RH  057%=      5-min Rain = 0
KSP2 081049Z 24012KT 11/03 A2988 RMK A01 T01140033  RH  057%=      5-min Rain = 0
KSP2 081050Z 23013KT 11/03 A2988 RMK A01 T01140033  RH  057%=      5-min Rain = 0
KSP2 081051Z 24012KT 12/03 A2988 RMK A01 T01150033  RH  057%=      5-min Rain = 0
KSP2 081052Z 23013KT 12/03 A2988 RMK A01 T01150033  RH  057%=      5-min Rain = 0
KSP2 081053Z 23012KT 12/03 A2988 RMK A01 T01150033  RH  057%=      5-min Rain = 0
KSP2 081054Z 23013KT 12/03 A2988 RMK A01 T01150033  RH  057%=      5-min Rain = 0
KSP2 081055Z 23013G18KT 12/03 A2988 RMK A01 T01150033  RH  057%=      5-min Rain = 0
KSP2 081056Z 23014KT 11/03 A2988 RMK A01 T01140033  RH  057%=      5-min Rain = 0
KSP2 081057Z 24013KT 11/03 A2988 RMK A01 T01140033  RH  057%=      5-min Rain = 0
KSP2 081058Z 23013KT 11/03 A2988 RMK A01 T01140033  RH  058%=      5-min Rain = 0
KSP2 081059Z 23014KT 11/03 A2988 RMK A01 T01140033  RH  058%=      5-min Rain = 0
KSP2 081100Z 23015KT 11/03 A2988 RMK A01 T01140033  RH  057%=      5-min Rain = 0
KSP2 081101Z 23013KT 12/03 A2988 RMK A01 T01150033  RH  057%=      5-min Rain = 0
KSP2 081102Z 23013KT 12/03 A2988 RMK A01 T01150033  RH  057%=      5-min Rain = 0
KSP2 081103Z 23013KT 11/03 A2987 RMK A01 T01140034  RH  058%=      5-min Rain = 0
KSP2 081104Z 23012KT 11/03 A2987 RMK A01 T01130034  RH  058%=      5-min Rain = 0
KSP2 081105Z 22013KT 11/03 A2987 RMK A01 T01120034  RH  059%=      5-min Rain = 0
KSP2 081106Z 23013KT 11/03 A2987 RMK A01 T01100034  RH  059%=      5-min Rain = 0
KSP2 081107Z 23013KT 11/03 A2987 RMK A01 T01100034  RH  060%=      5-min Rain = 0
KSP2 081108Z 23013KT 11/03 A2987 RMK A01 T01100034  RH  060%=      5-min Rain = 0
KSP2 081109Z 23012KT 11/04 A2987 RMK A01 T01090035  RH  060%=      5-min Rain = 0
KSP2 081110Z 23013KT 11/04 A2987 RMK A01 T01090035  RH  060%=      5-min Rain = 0
KSP2 081111Z 23014KT 11/04 A2987 RMK A01 T01090035  RH  060%=      5-min Rain = 0
KSP2 081112Z 24012KT 11/04 A2987 RMK A01 T01090035  RH  060%=      5-min Rain = 0
KSP2 081113Z 23013KT 11/04 A2987 RMK A01 T01110035  RH  060%=      5-min Rain = 0
KSP2 081114Z 23017G22KT 11/04 A2986 RMK A01 T01120035  RH  059%=      5-min Rain = 0
KSP2 081115Z 24012G18KT 12/04 A2987 RMK A01 T01150036  RH  058%=      5-min Rain = 0
KSP2 081116Z 24014KT 12/04 A2987 RMK A01 T01160035  RH  058%=      5-min Rain = 0
KSP2 081117Z 23014KT 12/04 A2987 RMK A01 T01160035  RH  057%=      5-min Rain = 0
KSP2 081118Z 23014KT 12/04 A2987 RMK A01 T01170035  RH  057%=      5-min Rain = 0
KSP2 081119Z 24014KT 12/04 A2987 RMK A01 T01170035  RH  057%=      5-min Rain = 0
KSP2 081120Z 23014KT 12/04 A2986 RMK A01 T01170035  RH  057%=      5-min Rain = 0
KSP2 081121Z 24014KT 12/04 A2986 RMK A01 T01170035  RH  057%=      5-min Rain = 0
KSP2 081122Z 23012KT 12/04 A2986 RMK A01 T01170035  RH  057%=      5-min Rain = 0
KSP2 081123Z 23012KT 12/04 A2986 RMK A01 T01180035  RH  057%=      5-min Rain = 0
KSP2 081124Z 23012KT 12/04 A2986 RMK A01 T01170035  RH  057%=      5-min Rain = 0
KSP2 081125Z 23012KT 12/04 A2986 RMK A01 T01170035  RH  057%=      5-min Rain = 0
KSP2 081126Z 23012KT 12/04 A2987 RMK A01 T01160035  RH  057%=      5-min Rain = 0
KSP2 081127Z 23011KT 12/03 A2987 RMK A01 T01150034  RH  057%=      5-min Rain = 0
KSP2 081128Z 23012KT 12/04 A2987 RMK A01 T01150035  RH  058%=      5-min Rain = 0
KSP2 081129Z 23012KT 12/04 A2987 RMK A01 T01160035  RH  058%=      5-min Rain = 0
KSP2 081130Z 23011KT 12/04 A2987 RMK A01 T01150035  RH  058%=      5-min Rain = 0
KSP2 081131Z 23011KT 12/04 A2987 RMK A01 T01150035  RH  058%=      5-min Rain = 0
KSP2 081132Z 23011G16KT 12/04 A2987 RMK A01 T01150035  RH  058%=      5-min Rain = 0
KSP2 081133Z 23012KT 12/04 A2987 RMK A01 T01150035  RH  058%=      5-min Rain = 0
KSP2 081134Z 23011KT 12/04 A2987 RMK A01 T01150036  RH  058%=      5-min Rain = 0
KSP2 081135Z 23012KT 11/04 A2987 RMK A01 T01140036  RH  058%=      5-min Rain = 0
KSP2 081136Z 24013KT 11/04 A2987 RMK A01 T01140036  RH  059%=      5-min Rain = 0
KSP2 081137Z 23013KT 11/04 A2987 RMK A01 T01140036  RH  059%=      5-min Rain = 0
KSP2 081138Z 23013KT 12/04 A2987 RMK A01 T01150037  RH  059%=      5-min Rain = 0
KSP2 081139Z 24012KT 12/04 A2987 RMK A01 T01150036  RH  058%=      5-min Rain = 0
KSP2 081140Z 24013KT 12/04 A2987 RMK A01 T01160036  RH  058%=      5-min Rain = 0
KSP2 081141Z 24014KT 12/04 A2987 RMK A01 T01170036  RH  058%=      5-min Rain = 0
KSP2 081142Z 24013KT 12/04 A2987 RMK A01 T01170037  RH  058%=      5-min Rain = 0
KSP2 081143Z 24012KT 12/04 A2987 RMK A01 T01180037  RH  058%=      5-min Rain = 0
KSP2 081144Z 24014G20KT 12/04 A2987 RMK A01 T01180037  RH  057%=      5-min Rain = 0
KSP2 081145Z 25013KT 12/04 A2987 RMK A01 T01190037  RH  057%=      5-min Rain = 0
KSP2 081146Z 24014KT 12/04 A2987 RMK A01 T01200037  RH  057%=      5-min Rain = 0
KSP2 081147Z 24016G21KT 12/04 A2987 RMK A01 T01220037  RH  056%=      5-min Rain = 0
KSP2 081148Z 24015KT 12/04 A2987 RMK A01 T01220037  RH  056%=      5-min Rain = 0
KSP2 081149Z 24016KT 12/04 A2987 RMK A01 T01230037  RH  056%=      5-min Rain = 0
KSP2 081150Z 24014G20KT 12/04 A2987 RMK A01 T01220037  RH  056%=      5-min Rain = 0
KSP2 081151Z 25015KT 12/04 A2988 RMK A01 T01220037  RH  056%=      5-min Rain = 0
KSP2 081152Z 25014KT 12/04 A2988 RMK A01 T01230037  RH  056%=      5-min Rain = 0
KSP2 081153Z 24017G22KT 12/04 A2988 RMK A01 T01230037  RH  056%=      5-min Rain = 0
KSP2 081154Z 24015KT 12/04 A2988 RMK A01 T01230038  RH  056%=      5-min Rain = 0
KSP2 081155Z 24015KT 12/04 A2988 RMK A01 T01230037  RH  056%=      5-min Rain = 0
KSP2 081156Z 25017KT 12/04 A2988 RMK A01 T01230037  RH  056%=      5-min Rain = 0
KSP2 081157Z 25017KT 12/04 A2988 RMK A01 T01230037  RH  056%=      5-min Rain = 0
KSP2 081158Z 25015G20KT 12/04 A2988 RMK A01 T01230037  RH  056%=      5-min Rain = 0
KSP2 081159Z 25015KT 12/04 A2988 RMK A01 T01230037  RH  056%=      5-min Rain = 0
KSP2 081200Z 25014KT 12/04 A2988 RMK A01 T01230037  RH  056%=      5-min Rain = 0
KSP2 081201Z 25015KT 12/04 A2988 RMK A01 T01230037  RH  056%=      5-min Rain = 0
KSP2 081202Z 26014KT 12/04 A2988 RMK A01 T01220037  RH  056%=      5-min Rain = 0
KSP2 081203Z 26015KT 12/04 A2988 RMK A01 T01220037  RH  056%=      5-min Rain = 0
KSP2 081204Z 26013KT 12/04 A2988 RMK A01 T01210037  RH  056%=      5-min Rain = 0
KSP2 081205Z 26014KT 12/04 A2988 RMK A01 T01200037  RH  057%=      5-min Rain = 0
KSP2 081206Z 26014KT 12/04 A2988 RMK A01 T01190037  RH  057%=      5-min Rain = 0
KSP2 081207Z 25013KT 12/04 A2988 RMK A01 T01180037  RH  058%=      5-min Rain = 0
KSP2 081208Z 25015KT 12/04 A2988 RMK A01 T01170037  RH  058%=      5-min Rain = 0
KSP2 081209Z 25015KT 12/04 A2988 RMK A01 T01160037  RH  058%=      5-min Rain = 0
KSP2 081210Z 25014KT 12/04 A2988 RMK A01 T01160037  RH  058%=      5-min Rain = 0
KSP2 081211Z 25013KT 12/04 A2988 RMK A01 T01160037  RH  058%=      5-min Rain = 0
KSP2 081212Z 25013KT 12/04 A2988 RMK A01 T01160037  RH  059%=      5-min Rain = 0
KSP2 081213Z 25013KT 12/04 A2988 RMK A01 T01150037  RH  059%=      5-min Rain = 0
KSP2 081214Z 26012KT 12/04 A2988 RMK A01 T01150037  RH  059%=      5-min Rain = 0
KSP2 081215Z 25012KT 12/04 A2988 RMK A01 T01150037  RH  059%=      5-min Rain = 0
KSP2 081216Z 26011KT 11/04 A2988 RMK A01 T01140037  RH  059%=      5-min Rain = 0
KSP2 081217Z 25012KT 12/04 A2988 RMK A01 T01150037  RH  059%=      5-min Rain = 0
KSP2 081218Z 25012KT 12/04 A2988 RMK A01 T01150037  RH  059%=      5-min Rain = 0
KSP2 081219Z 26013KT 12/04 A2988 RMK A01 T01150037  RH  059%=      5-min Rain = 0
KSP2 081220Z 26013KT 12/04 A2988 RMK A01 T01160037  RH  058%=      5-min Rain = 0
KSP2 081221Z 26013KT 12/04 A2988 RMK A01 T01170037  RH  058%=      5-min Rain = 0
KSP2 081222Z 26013KT 12/04 A2988 RMK A01 T01170037  RH  058%=      5-min Rain = 0
KSP2 081223Z 26011KT 12/04 A2989 RMK A01 T01170037  RH  058%=      5-min Rain = 0
KSP2 081224Z 27010KT 12/04 A2989 RMK A01 T01170037  RH  058%=      5-min Rain = 0
KSP2 081225Z 28006KT 12/04 A2989 RMK A01 T01170038  RH  058%=      5-min Rain = 0
KSP2 081226Z 28007KT 12/04 A2989 RMK A01 T01150038  RH  059%=      5-min Rain = 0
KSP2 081227Z 28008KT 11/04 A2989 RMK A01 T01140037  RH  059%=      5-min Rain = 0
KSP2 081228Z 28008KT 11/04 A2989 RMK A01 T01130037  RH  060%=      5-min Rain = 0
KSP2 081229Z 28008KT 11/04 A2989 RMK A01 T01120038  RH  060%=      5-min Rain = 0
KSP2 081230Z 28008KT 11/04 A2989 RMK A01 T01120038  RH  060%=      5-min Rain = 0
KSP2 081231Z 28009KT 11/04 A2989 RMK A01 T01120038  RH  061%=      5-min Rain = 0
KSP2 081232Z 27008KT 11/04 A2989 RMK A01 T01110038  RH  061%=      5-min Rain = 0
KSP2 081233Z 27008KT 11/04 A2988 RMK A01 T01110038  RH  061%=      5-min Rain = 0
KSP2 081234Z 27009KT 11/04 A2988 RMK A01 T01120039  RH  061%=      5-min Rain = 0
KSP2 081235Z 27008KT 11/04 A2988 RMK A01 T01110039  RH  061%=      5-min Rain = 0
KSP2 081236Z 27009KT 11/04 A2988 RMK A01 T01110038  RH  061%=      5-min Rain = 0
KSP2 081237Z 27009KT 11/04 A2988 RMK A01 T01110039  RH  061%=      5-min Rain = 0
KSP2 081238Z 27009KT 11/04 A2988 RMK A01 T01120039  RH  061%=      5-min Rain = 0
KSP2 081239Z 28010KT 11/04 A2988 RMK A01 T01120039  RH  061%=      5-min Rain = 0
KSP2 081240Z 27009KT 11/04 A2988 RMK A01 T01120039  RH  061%=      5-min Rain = 0
KSP2 081241Z 27009KT 11/04 A2988 RMK A01 T01120039  RH  061%=      5-min Rain = 0
KSP2 081242Z 27010KT 11/04 A2988 RMK A01 T01120039  RH  061%=      5-min Rain = 0
KSP2 081243Z 26012KT 11/04 A2988 RMK A01 T01120039  RH  061%=      5-min Rain = 0
KSP2 081244Z 26010KT 11/04 A2988 RMK A01 T01130039  RH  060%=      5-min Rain = 0
KSP2 081245Z 26012KT 11/04 A2988 RMK A01 T01130039  RH  060%=      5-min Rain = 0
KSP2 081246Z 26010KT 11/04 A2988 RMK A01 T01140039  RH  060%=      5-min Rain = 0
KSP2 081247Z 26011KT 11/04 A2988 RMK A01 T01140039  RH  060%=      5-min Rain = 0
KSP2 081248Z 25012KT 11/04 A2988 RMK A01 T01140039  RH  060%=      5-min Rain = 0
KSP2 081249Z 26011KT 12/04 A2988 RMK A01 T01150039  RH  060%=      5-min Rain = 0
KSP2 081250Z 25012KT 12/04 A2988 RMK A01 T01160039  RH  059%=      5-min Rain = 0
KSP2 081251Z 26012KT 12/04 A2988 RMK A01 T01160039  RH  059%=      5-min Rain = 0
KSP2 081252Z 26014KT 12/04 A2988 RMK A01 T01170039  RH  059%=      5-min Rain = 0
KSP2 081253Z 26012KT 12/04 A2988 RMK A01 T01170039  RH  059%=      5-min Rain = 0
KSP2 081254Z 26013KT 12/04 A2988 RMK A01 T01180039  RH  058%=      5-min Rain = 0
KSP2 081255Z 26011KT 12/04 A2988 RMK A01 T01170039  RH  058%=      5-min Rain = 0
KSP2 081256Z 26011KT 12/04 A2988 RMK A01 T01170039  RH  059%=      5-min Rain = 0
KSP2 081257Z 26010KT 12/04 A2988 RMK A01 T01170039  RH  059%=      5-min Rain = 0
KSP2 081258Z 26011KT 12/04 A2988 RMK A01 T01170039  RH  059%=      5-min Rain = 0
KSP2 081259Z 27010KT 12/04 A2988 RMK A01 T01170039  RH  059%=      5-min Rain = 0
KSP2 081300Z 27010KT 12/04 A2988 RMK A01 T01160039  RH  059%=      5-min Rain = 0
KSP2 081301Z 28009KT 12/04 A2989 RMK A01 T01160039  RH  059%=      5-min Rain = 0
KSP2 081302Z 27009KT 12/04 A2989 RMK A01 T01150039  RH  060%=      5-min Rain = 0
KSP2 081303Z 27009KT 11/04 A2989 RMK A01 T01140039  RH  060%=      5-min Rain = 0
KSP2 081304Z 26009KT 11/04 A2988 RMK A01 T01130039  RH  060%=      5-min Rain = 0
KSP2 081305Z 25011KT 11/04 A2988 RMK A01 T01130039  RH  060%=      5-min Rain = 0
KSP2 081306Z 25009KT 11/04 A2988 RMK A01 T01120039  RH  061%=      5-min Rain = 0
KSP2 081307Z 26008KT 11/04 A2989 RMK A01 T01120039  RH  061%=      5-min Rain = 0
KSP2 081308Z 27008KT 11/04 A2989 RMK A01 T01120039  RH  061%=      5-min Rain = 0
KSP2 081309Z 28008KT 11/04 A2989 RMK A01 T01120039  RH  061%=      5-min Rain = 0
KSP2 081310Z 29007KT 11/04 A2989 RMK A01 T01110040  RH  061%=      5-min Rain = 0
KSP2 081311Z 30006KT 11/04 A2989 RMK A01 T01100040  RH  062%=      5-min Rain = 0
KSP2 081312Z 29006KT 11/04 A2989 RMK A01 T01090040  RH  062%=      5-min Rain = 0
KSP2 081313Z 27005KT 11/04 A2989 RMK A01 T01080039  RH  063%=      5-min Rain = 0
KSP2 081314Z 26006KT 11/04 A2989 RMK A01 T01080039  RH  063%=      5-min Rain = 0
KSP2 081315Z 25007KT 11/04 A2989 RMK A01 T01070039  RH  063%=      5-min Rain = 0
KSP2 081316Z 24007KT 11/04 A2989 RMK A01 T01060039  RH  063%=      5-min Rain = 0
KSP2 081317Z 23008KT 11/04 A2989 RMK A01 T01060039  RH  063%=      5-min Rain = 0
KSP2 081318Z 24008KT 11/04 A2989 RMK A01 T01070039  RH  063%=      5-min Rain = 0
KSP2 081319Z 24007KT 11/04 A2989 RMK A01 T01070039  RH  063%=      5-min Rain = 0
KSP2 081320Z 24006KT 11/04 A2989 RMK A01 T01070039  RH  063%=      5-min Rain = 0
KSP2 081321Z 25006KT 11/04 A2988 RMK A01 T01070040  RH  063%=      5-min Rain = 0
KSP2 081322Z 26006KT 11/04 A2989 RMK A01 T01070040  RH  063%=      5-min Rain = 0
KSP2 081323Z 27006KT 11/04 A2989 RMK A01 T01070040  RH  063%=      5-min Rain = 0
KSP2 081324Z 27006KT 11/04 A2989 RMK A01 T01070040  RH  063%=      5-min Rain = 0
KSP2 081325Z 26007KT 11/04 A2989 RMK A01 T01070040  RH  063%=      5-min Rain = 0
KSP2 081326Z 26007KT 11/04 A2989 RMK A01 T01080040  RH  063%=      5-min Rain = 0
KSP2 081327Z 25008KT 11/04 A2989 RMK A01 T01080040  RH  063%=      5-min Rain = 0
KSP2 081328Z 25008KT 11/04 A2989 RMK A01 T01090040  RH  063%=      5-min Rain = 0
KSP2 081329Z 24008KT 11/04 A2989 RMK A01 T01090040  RH  063%=      5-min Rain = 0
KSP2 081330Z 24009KT 11/04 A2988 RMK A01 T01090040  RH  062%=      5-min Rain = 0
KSP2 081331Z 24009KT 11/04 A2988 RMK A01 T01090040  RH  062%=      5-min Rain = 0
KSP2 081332Z 24008KT 11/04 A2988 RMK A01 T01100040  RH  062%=      5-min Rain = 0
KSP2 081333Z 25007KT 11/04 A2988 RMK A01 T01100040  RH  062%=      5-min Rain = 0
KSP2 081334Z 25007KT 11/04 A2988 RMK A01 T01100040  RH  062%=      5-min Rain = 0
KSP2 081335Z 26007KT 11/04 A2989 RMK A01 T01100040  RH  062%=      5-min Rain = 0
KSP2 081336Z 27007KT 11/04 A2989 RMK A01 T01100040  RH  062%=      5-min Rain = 0
KSP2 081337Z 28007KT 11/04 A2989 RMK A01 T01110040  RH  062%=      5-min Rain = 0
KSP2 081338Z 29007KT 11/04 A2989 RMK A01 T01110040  RH  062%=      5-min Rain = 0
KSP2 081339Z 29007KT 11/04 A2988 RMK A01 T01120041  RH  062%=      5-min Rain = 0
KSP2 081340Z 28007KT 11/04 A2988 RMK A01 T01110041  RH  062%=      5-min Rain = 0
KSP2 081341Z 28007KT 11/04 A2988 RMK A01 T01110041  RH  062%=      5-min Rain = 0
KSP2 081342Z 28007KT 11/04 A2988 RMK A01 T01120041  RH  062%=      5-min Rain = 0
KSP2 081343Z 27008KT 11/04 A2988 RMK A01 T01110041  RH  062%=      5-min Rain = 0
KSP2 081344Z 27007KT 11/04 A2988 RMK A01 T01110041  RH  062%=      5-min Rain = 0
KSP2 081345Z 27008KT 11/04 A2988 RMK A01 T01110041  RH  062%=      5-min Rain = 0
KSP2 081346Z 27007KT 11/04 A2988 RMK A01 T01100041  RH  062%=      5-min Rain = 0
KSP2 081347Z 28008KT 11/04 A2988 RMK A01 T01110041  RH  062%=      5-min Rain = 0
KSP2 081348Z 28008KT 11/04 A2988 RMK A01 T01110041  RH  062%=      5-min Rain = 0
KSP2 081349Z 28009KT 11/04 A2988 RMK A01 T01110041  RH  062%=      5-min Rain = 0
KSP2 081350Z 28008KT 11/04 A2988 RMK A01 T01120041  RH  062%=      5-min Rain = 0
KSP2 081351Z 27009KT 11/04 A2988 RMK A01 T01120041  RH  062%=      5-min Rain = 0
KSP2 081352Z 26009KT 11/04 A2988 RMK A01 T01120041  RH  062%=      5-min Rain = 0
KSP2 081353Z 26009KT 11/04 A2988 RMK A01 T01120041  RH  062%=      5-min Rain = 0
KSP2 081354Z 26009KT 11/04 A2988 RMK A01 T01120041  RH  061%=      5-min Rain = 0
KSP2 081355Z 27008KT 11/04 A2988 RMK A01 T01130041  RH  061%=      5-min Rain = 0
KSP2 081356Z 27008KT 11/04 A2988 RMK A01 T01130042  RH  061%=      5-min Rain = 0
KSP2 081357Z 27008KT 11/04 A2988 RMK A01 T01130042  RH  062%=      5-min Rain = 0
KSP2 081358Z 27009KT 11/04 A2988 RMK A01 T01120042  RH  062%=      5-min Rain = 0
KSP2 081359Z 28009KT 11/04 A2988 RMK A01 T01120042  RH  062%=      5-min Rain = 0
KSP2 081400Z 28009KT 11/04 A2988 RMK A01 T01120042  RH  062%=      5-min Rain = 0
KSP2 081401Z 28008KT 11/04 A2988 RMK A01 T01120042  RH  062%=      5-min Rain = 0
KSP2 081402Z 27008KT 11/04 A2988 RMK A01 T01120042  RH  062%=      5-min Rain = 0
KSP2 081403Z 27008KT 11/04 A2988 RMK A01 T01130042  RH  062%=      5-min Rain = 0
KSP2 081404Z 26008KT 11/04 A2988 RMK A01 T01130042  RH  062%=      5-min Rain = 0
KSP2 081405Z 26008KT 11/04 A2988 RMK A01 T01130042  RH  062%=      5-min Rain = 0
KSP2 081406Z 27008KT 11/04 A2988 RMK A01 T01130042  RH  062%=      5-min Rain = 0
KSP2 081407Z 26009KT 11/04 A2988 RMK A01 T01130042  RH  062%=      5-min Rain = 0
KSP2 081408Z 27009KT 11/04 A2988 RMK A01 T01130042  RH  062%=      5-min Rain = 0
KSP2 081409Z 27008KT 11/04 A2988 RMK A01 T01130042  RH  061%=      5-min Rain = 0
KSP2 081410Z 27008KT 11/04 A2988 RMK A01 T01130042  RH  061%=      5-min Rain = 0
KSP2 081411Z 26009KT 11/04 A2988 RMK A01 T01130042  RH  062%=      5-min Rain = 0
KSP2 081412Z 25008KT 11/04 A2988 RMK A01 T01130042  RH  062%=      5-min Rain = 0
KSP2 081413Z 25008KT 11/04 A2988 RMK A01 T01130043  RH  062%=      5-min Rain = 0
KSP2 081414Z 26009KT 11/04 A2988 RMK A01 T01130043  RH  062%=      5-min Rain = 0
KSP2 081415Z 26009KT 11/04 A2988 RMK A01 T01130043  RH  062%=      5-min Rain = 0
KSP2 081416Z 26009KT 11/04 A2988 RMK A01 T01140042  RH  061%=      5-min Rain = 0
KSP2 081417Z 26008KT 11/04 A2988 RMK A01 T01140042  RH  061%=      5-min Rain = 0
KSP2 081418Z 26009KT 12/04 A2988 RMK A01 T01150042  RH  061%=      5-min Rain = 0
KSP2 081419Z 26008KT 12/04 A2988 RMK A01 T01160042  RH  060%=      5-min Rain = 0
KSP2 081420Z 26009KT 12/04 A2987 RMK A01 T01160042  RH  060%=      5-min Rain = 0
KSP2 081421Z 26009KT 12/04 A2987 RMK A01 T01170042  RH  060%=      5-min Rain = 0
KSP2 081422Z 26008KT 12/04 A2987 RMK A01 T01170042  RH  060%=      5-min Rain = 0
KSP2 081423Z 26009KT 12/04 A2987 RMK A01 T01180042  RH  060%=      5-min Rain = 0
KSP2 081424Z 26009KT 12/04 A2987 RMK A01 T01170042  RH  060%=      5-min Rain = 0
KSP2 081425Z 26010KT 12/04 A2987 RMK A01 T01170042  RH  060%=      5-min Rain = 0
KSP2 081426Z 26008KT 12/04 A2987 RMK A01 T01170041  RH  060%=      5-min Rain = 0
KSP2 081427Z 26010KT 12/04 A2987 RMK A01 T01180042  RH  060%=      5-min Rain = 0
KSP2 081428Z 26009KT 12/04 A2987 RMK A01 T01170042  RH  060%=      5-min Rain = 0
KSP2 081429Z 26009KT 12/04 A2987 RMK A01 T01170041  RH  060%=      5-min Rain = 0
KSP2 081430Z 26008KT 12/04 A2987 RMK A01 T01170042  RH  060%=      5-min Rain = 0
KSP2 081431Z 25009KT 12/04 A2987 RMK A01 T01170042  RH  060%=      5-min Rain = 0
KSP2 081432Z 25008KT 12/04 A2987 RMK A01 T01170042  RH  060%=      5-min Rain = 0
KSP2 081433Z 25008KT 12/04 A2987 RMK A01 T01170042  RH  060%=      5-min Rain = 0
KSP2 081434Z 25009KT 12/04 A2987 RMK A01 T01170042  RH  060%=      5-min Rain = 0
KSP2 081435Z 26009KT 12/04 A2987 RMK A01 T01170042  RH  060%=      5-min Rain = 0
KSP2 081436Z 26009KT 12/04 A2987 RMK A01 T01170042  RH  060%=      5-min Rain = 0
KSP2 081437Z 26009KT 12/04 A2987 RMK A01 T01170042  RH  060%=      5-min Rain = 0
KSP2 081438Z 25008KT 12/04 A2987 RMK A01 T01180042  RH  060%=      5-min Rain = 0
KSP2 081439Z 26009KT 12/04 A2987 RMK A01 T01180042  RH  060%=      5-min Rain = 0
KSP2 081440Z 25009KT 12/04 A2987 RMK A01 T01180042  RH  060%=      5-min Rain = 0
KSP2 081441Z 26009KT 12/04 A2987 RMK A01 T01190042  RH  059%=      5-min Rain = 0
KSP2 081442Z 26009KT 12/04 A2987 RMK A01 T01190043  RH  059%=      5-min Rain = 0
KSP2 081443Z 26008KT 12/04 A2987 RMK A01 T01200043  RH  059%=      5-min Rain = 0
KSP2 081444Z 25008KT 12/04 A2988 RMK A01 T01200043  RH  059%=      5-min Rain = 0
KSP2 081445Z 25008KT 12/04 A2988 RMK A01 T01210043  RH  059%=      5-min Rain = 0
KSP2 081446Z 25009KT 12/04 A2988 RMK A01 T01220043  RH  059%=      5-min Rain = 0
KSP2 081447Z 25008KT 12/04 A2988 RMK A01 T01220043  RH  058%=      5-min Rain = 0
KSP2 081448Z 25007KT 12/04 A2988 RMK A01 T01220043  RH  058%=      5-min Rain = 0
KSP2 081449Z 25008KT 12/04 A2988 RMK A01 T01230044  RH  058%=      5-min Rain = 0
KSP2 081450Z 25008KT 12/04 A2988 RMK A01 T01230043  RH  058%=      5-min Rain = 0
KSP2 081451Z 25007KT 12/04 A2987 RMK A01 T01230043  RH  058%=      5-min Rain = 0
KSP2 081452Z 25008KT 12/04 A2987 RMK A01 T01240043  RH  058%=      5-min Rain = 0
KSP2 081453Z 25008KT 12/04 A2987 RMK A01 T01240043  RH  058%=      5-min Rain = 0
KSP2 081454Z 25008KT 12/04 A2987 RMK A01 T01240044  RH  058%=      5-min Rain = 0
KSP2 081455Z 25008KT 12/04 A2987 RMK A01 T01240043  RH  058%=      5-min Rain = 0
KSP2 081456Z 25008KT 13/04 A2987 RMK A01 T01250043  RH  058%=      5-min Rain = 0
KSP2 081457Z 25010KT 13/04 A2987 RMK A01 T01250044  RH  058%=      5-min Rain = 0
KSP2 081458Z 25010KT 13/04 A2987 RMK A01 T01250043  RH  057%=      5-min Rain = 0
KSP2 081459Z 25009KT 13/04 A2987 RMK A01 T01260043  RH  057%=      5-min Rain = 0
KSP2 081500Z 25008KT 13/04 A2987 RMK A01 T01260043  RH  057%=      5-min Rain = 0
KSP2 081501Z 25008KT 13/04 A2987 RMK A01 T01270044  RH  057%=      5-min Rain = 0
KSP2 081502Z 26009KT 13/04 A2987 RMK A01 T01270043  RH  057%=      5-min Rain = 0
KSP2 081503Z 24010KT 13/04 A2987 RMK A01 T01280043  RH  056%=      5-min Rain = 0
KSP2 081504Z 25008KT 13/04 A2987 RMK A01 T01290043  RH  056%=      5-min Rain = 0
KSP2 081505Z 24008KT 13/04 A2987 RMK A01 T01290043  RH  056%=      5-min Rain = 0
KSP2 081506Z 25008KT 13/04 A2987 RMK A01 T01290044  RH  056%=      5-min Rain = 0
KSP2 081507Z 24008KT 13/04 A2987 RMK A01 T01290044  RH  056%=      5-min Rain = 0
KSP2 081508Z 25010KT 13/04 A2987 RMK A01 T01290043  RH  056%=      5-min Rain = 0
KSP2 081509Z 25010KT 13/04 A2987 RMK A01 T01290043  RH  056%=      5-min Rain = 0
KSP2 081510Z 25008KT 13/04 A2987 RMK A01 T01290043  RH  056%=      5-min Rain = 0
KSP2 081511Z 25010KT 13/04 A2987 RMK A01 T01280043  RH  056%=      5-min Rain = 0
KSP2 081512Z 25008KT 13/04 A2987 RMK A01 T01280043  RH  056%=      5-min Rain = 0
KSP2 081513Z 26009KT 13/04 A2987 RMK A01 T01280043  RH  056%=      5-min Rain = 0
KSP2 081514Z 25009KT 13/04 A2987 RMK A01 T01280043  RH  056%=      5-min Rain = 0
KSP2 081515Z 26008KT 13/04 A2987 RMK A01 T01290044  RH  056%=      5-min Rain = 0
KSP2 081516Z 25008KT 13/04 A2987 RMK A01 T01290043  RH  056%=      5-min Rain = 0
KSP2 081517Z 26008KT 13/04 A2987 RMK A01 T01290044  RH  056%=      5-min Rain = 0
KSP2 081518Z 26010KT 13/04 A2987 RMK A01 T01300044  RH  056%=      5-min Rain = 0
KSP2 081519Z 26009KT 13/04 A2987 RMK A01 T01300043  RH  055%=      5-min Rain = 0
KSP2 081520Z 26008KT 13/04 A2987 RMK A01 T01310043  RH  055%=      5-min Rain = 0
KSP2 081521Z 26008KT 13/04 A2987 RMK A01 T01320044  RH  055%=      5-min Rain = 0
KSP2 081522Z 27008KT 13/04 A2987 RMK A01 T01320044  RH  055%=      5-min Rain = 0
KSP2 081523Z 26009KT 13/04 A2987 RMK A01 T01330044  RH  055%=      5-min Rain = 0
KSP2 081524Z 27010KT 14/05 A2987 RMK A01 T01350045  RH  054%=      5-min Rain = 0
KSP2 081525Z 26010KT 14/04 A2987 RMK A01 T01360044  RH  054%=      5-min Rain = 0
KSP2 081526Z 26010KT 14/04 A2987 RMK A01 T01360044  RH  054%=      5-min Rain = 0
KSP2 081527Z 26012KT 14/04 A2987 RMK A01 T01370044  RH  053%=      5-min Rain = 0
KSP2 081528Z 26012KT 14/04 A2987 RMK A01 T01380043  RH  052%=      5-min Rain = 0
KSP2 081529Z 26012KT 14/04 A2987 RMK A01 T01390043  RH  052%=      5-min Rain = 0
KSP2 081530Z 26012KT 14/04 A2987 RMK A01 T01400043  RH  052%=      5-min Rain = 0
KSP2 081531Z 26011KT 14/04 A2987 RMK A01 T01390043  RH  052%=      5-min Rain = 0
KSP2 081532Z 26012KT 14/04 A2987 RMK A01 T01390043  RH  052%=      5-min Rain = 0
KSP2 081533Z 27012KT 14/04 A2987 RMK A01 T01380042  RH  052%=      5-min Rain = 0
KSP2 081534Z 26012KT 14/04 A2987 RMK A01 T01380043  RH  053%=      5-min Rain = 0
KSP2 081535Z 27011KT 14/04 A2987 RMK A01 T01380043  RH  053%=      5-min Rain = 0
KSP2 081536Z 27012KT 14/04 A2987 RMK A01 T01380043  RH  053%=      5-min Rain = 0
KSP2 081537Z 26011KT 14/04 A2987 RMK A01 T01370043  RH  053%=      5-min Rain = 0
KSP2 081538Z 26013KT 14/04 A2987 RMK A01 T01370043  RH  053%=      5-min Rain = 0
KSP2 081539Z 26012KT 14/04 A2987 RMK A01 T01370043  RH  053%=      5-min Rain = 0
KSP2 081540Z 26013KT 14/04 A2987 RMK A01 T01380043  RH  053%=      5-min Rain = 0
KSP2 081541Z 27011KT 14/04 A2987 RMK A01 T01380044  RH  053%=      5-min Rain = 0
KSP2 081542Z 26011KT 14/04 A2987 RMK A01 T01370044  RH  053%=      5-min Rain = 0
KSP2 081543Z 26011KT 14/04 A2987 RMK A01 T01380044  RH  053%=      5-min Rain = 0
KSP2 081544Z 26012KT 14/04 A2987 RMK A01 T01380044  RH  053%=      5-min Rain = 0
KSP2 081545Z 26011KT 14/04 A2987 RMK A01 T01380044  RH  053%=      5-min Rain = 0
KSP2 081546Z 25012G17KT 14/05 A2987 RMK A01 T01380045  RH  053%=      5-min Rain = 0
KSP2 081547Z 26013KT 14/04 A2987 RMK A01 T01390044  RH  053%=      5-min Rain = 0
KSP2 081548Z 26012KT 14/04 A2987 RMK A01 T01400044  RH  053%=      5-min Rain = 0
KSP2 081549Z 26011KT 14/05 A2987 RMK A01 T01400045  RH  053%=      5-min Rain = 0
KSP2 081550Z 26012KT 14/05 A2987 RMK A01 T01400045  RH  053%=      5-min Rain = 0
KSP2 081551Z 26012KT 14/05 A2987 RMK A01 T01410045  RH  053%=      5-min Rain = 0
KSP2 081552Z 27011KT 14/05 A2987 RMK A01 T01420046  RH  052%=      5-min Rain = 0
KSP2 081553Z 27013KT 14/05 A2987 RMK A01 T01420045  RH  052%=      5-min Rain = 0
KSP2 081554Z 27013KT 14/05 A2987 RMK A01 T01430046  RH  052%=      5-min Rain = 0
KSP2 081555Z 26014KT 14/05 A2987 RMK A01 T01440046  RH  052%=      5-min Rain = 0
KSP2 081556Z 26012G17KT 15/05 A2987 RMK A01 T01450046  RH  051%=      5-min Rain = 0
KSP2 081557Z 26012KT 15/05 A2987 RMK A01 T01460046  RH  051%=      5-min Rain = 0
KSP2 081558Z 26013KT 15/05 A2987 RMK A01 T01460046  RH  051%=      5-min Rain = 0
KSP2 081559Z 26017KT 15/05 A2987 RMK A01 T01470045  RH  050%=      5-min Rain = 0
KSP2 081600Z 26014KT 15/05 A2987 RMK A01 T01480045  RH  050%=      5-min Rain = 0
KSP2 081601Z 26014G19KT 15/04 A2986 RMK A01 T01490044  RH  050%=      5-min Rain = 0
KSP2 081602Z 26016KT 15/04 A2986 RMK A01 T01500044  RH  049%=      5-min Rain = 0
KSP2 081603Z 26014G19KT 15/04 A2987 RMK A01 T01500044  RH  049%=      5-min Rain = 0
KSP2 081604Z 25014KT 15/04 A2987 RMK A01 T01500044  RH  049%=      5-min Rain = 0
KSP2 081605Z 26016KT 15/04 A2987 RMK A01 T01510044  RH  049%=      5-min Rain = 0
KSP2 081606Z 26015KT 15/04 A2987 RMK A01 T01510044  RH  049%=      5-min Rain = 0
KSP2 081607Z 26016KT 15/04 A2987 RMK A01 T01520043  RH  048%=      5-min Rain = 0
KSP2 081608Z 26017KT 15/04 A2987 RMK A01 T01520044  RH  048%=      5-min Rain = 0
KSP2 081609Z 26017KT 15/04 A2987 RMK A01 T01530043  RH  048%=      5-min Rain = 0
KSP2 081610Z 26018KT 15/04 A2987 RMK A01 T01540043  RH  048%=      5-min Rain = 0
KSP2 081611Z 26016KT 16/04 A2987 RMK A01 T01550043  RH  047%=      5-min Rain = 0
KSP2 081612Z 26018KT 16/04 A2987 RMK A01 T01550043  RH  047%=      5-min Rain = 0
KSP2 081613Z 26017G24KT 16/04 A2986 RMK A01 T01560043  RH  047%=      5-min Rain = 0
KSP2 081614Z 26018KT 16/04 A2986 RMK A01 T01560043  RH  047%=      5-min Rain = 0
KSP2 081615Z 26015KT 16/04 A2986 RMK A01 T01560043  RH  047%=      5-min Rain = 0
KSP2 081616Z 26014KT 16/04 A2986 RMK A01 T01560044  RH  047%=      5-min Rain = 0
KSP2 081617Z 26015KT 16/04 A2986 RMK A01 T01570044  RH  047%=      5-min Rain = 0
KSP2 081618Z 26015KT 16/04 A2986 RMK A01 T01570044  RH  047%=      5-min Rain = 0
KSP2 081619Z 26017G22KT 16/04 A2986 RMK A01 T01580043  RH  047%=      5-min Rain = 0
KSP2 081620Z 26016KT 16/04 A2986 RMK A01 T01580043  RH  046%=      5-min Rain = 0
KSP2 081621Z 26014G19KT 16/04 A2986 RMK A01 T01590044  RH  046%=      5-min Rain = 0
KSP2 081622Z 26014KT 16/05 A2986 RMK A01 T01610045  RH  046%=      5-min Rain = 0
KSP2 081623Z 26016KT 16/04 A2985 RMK A01 T01620044  RH  046%=      5-min Rain = 0
KSP2 081624Z 26014G21KT 16/05 A2985 RMK A01 T01630045  RH  046%=      5-min Rain = 0
KSP2 081625Z 26016KT 16/04 A2985 RMK A01 T01640044  RH  045%=      5-min Rain = 0
KSP2 081626Z 26015G20KT 17/04 A2986 RMK A01 T01650044  RH  045%=      5-min Rain = 0
KSP2 081627Z 26017KT 17/05 A2986 RMK A01 T01650045  RH  045%=      5-min Rain = 0
KSP2 081628Z 26017KT 17/05 A2986 RMK A01 T01650045  RH  045%=      5-min Rain = 0
KSP2 081629Z 26016G22KT 17/05 A2986 RMK A01 T01660045  RH  045%=      5-min Rain = 0
KSP2 081630Z 27019KT 17/05 A2986 RMK A01 T01670045  RH  044%=      5-min Rain = 0
KSP2 081631Z 27017G22KT 17/05 A2986 RMK A01 T01690045  RH  044%=      5-min Rain = 0
KSP2 081632Z 26017KT 17/05 A2986 RMK A01 T01700046  RH  044%=      5-min Rain = 0
KSP2 081633Z 26016G21KT 17/05 A2986 RMK A01 T01720046  RH  043%=      5-min Rain = 0
KSP2 081634Z 27018KT 17/05 A2986 RMK A01 T01740046  RH  043%=      5-min Rain = 0
KSP2 081635Z 26017G26KT 18/05 A2986 RMK A01 T01760047  RH  043%=      5-min Rain = 0
KSP2 081636Z 27022KT 18/05 A2986 RMK A01 T01770046  RH  042%=      5-min Rain = 0
KSP2 081637Z 27020KT 18/05 A2986 RMK A01 T01780047  RH  042%=      5-min Rain = 0
KSP2 081638Z 26025KT 18/05 A2986 RMK A01 T01790046  RH  041%=      5-min Rain = 0
KSP2 081639Z 27024G29KT 18/04 A2986 RMK A01 T01780044  RH  041%=      5-min Rain = 0
KSP2 081640Z 26021G26KT 18/05 A2986 RMK A01 T01780045  RH  041%=      5-min Rain = 0
KSP2 081641Z 27024G29KT 18/05 A2985 RMK A01 T01780045  RH  041%=      5-min Rain = 0
KSP2 081642Z 26022KT 18/05 A2985 RMK A01 T01790045  RH  041%=      5-min Rain = 0
KSP2 081643Z 27017KT 18/05 A2985 RMK A01 T01790046  RH  041%=      5-min Rain = 0
KSP2 081644Z 26020KT 18/05 A2985 RMK A01 T01810047  RH  041%=      5-min Rain = 0
KSP2 081645Z 26022KT 18/05 A2985 RMK A01 T01810046  RH  041%=      5-min Rain = 0
KSP2 081646Z 27023G31KT 18/05 A2985 RMK A01 T01810045  RH  041%=      5-min Rain = 0
KSP2 081647Z 27023KT 18/05 A2985 RMK A01 T01810045  RH  041%=      5-min Rain = 0
KSP2 081648Z 26023G28KT 18/04 A2985 RMK A01 T01800044  RH  041%=      5-min Rain = 0
KSP2 081649Z 27023G31KT 18/04 A2985 RMK A01 T01790044  RH  041%=      5-min Rain = 0
KSP2 081650Z 27023G29KT 18/04 A2985 RMK A01 T01790044  RH  041%=      5-min Rain = 0
KSP2 081651Z 27023KT 18/05 A2985 RMK A01 T01790045  RH  041%=      5-min Rain = 0
KSP2 081652Z 27023G28KT 18/05 A2985 RMK A01 T01790045  RH  041%=      5-min Rain = 0
KSP2 081653Z 27024KT 18/05 A2985 RMK A01 T01800045  RH  041%=      5-min Rain = 0
KSP2 081654Z 26023G29KT 18/05 A2985 RMK A01 T01810045  RH  041%=      5-min Rain = 0
KSP2 081655Z 26024KT 18/05 A2985 RMK A01 T01800045  RH  041%=      5-min Rain = 0
KSP2 081656Z 27020KT 18/05 A2985 RMK A01 T01800045  RH  041%=      5-min Rain = 0
KSP2 081657Z 26022G27KT 18/05 A2985 RMK A01 T01800046  RH  041%=      5-min Rain = 0
KSP2 081658Z 26019KT 18/05 A2985 RMK A01 T01790046  RH  041%=      5-min Rain = 0
KSP2 081659Z 27021G27KT 18/05 A2985 RMK A01 T01790045  RH  041%=      5-min Rain = 0
KSP2 081700Z 26020KT 18/05 A2985 RMK A01 T01790046  RH  041%=      5-min Rain = 0
KSP2 081701Z 26020G25KT 18/05 A2985 RMK A01 T01780046  RH  041%=      5-min Rain = 0
KSP2 081702Z 26017KT 18/05 A2985 RMK A01 T01780047  RH  042%=      5-min Rain = 0
KSP2 081703Z 26019KT 18/05 A2985 RMK A01 T01780047  RH  042%=      5-min Rain = 0
KSP2 081704Z 26020G25KT 18/05 A2985 RMK A01 T01780046  RH  042%=      5-min Rain = 0
KSP2 081705Z 26017G24KT 18/05 A2985 RMK A01 T01780047  RH  042%=      5-min Rain = 0
KSP2 081706Z 26023KT 18/05 A2985 RMK A01 T01780045  RH  042%=      5-min Rain = 0
KSP2 081707Z 26022G29KT 18/05 A2985 RMK A01 T01770045  RH  041%=      5-min Rain = 0
KSP2 081708Z 26024KT 18/05 A2985 RMK A01 T01770045  RH  041%=      5-min Rain = 0
KSP2 081709Z 26021G26KT 18/05 A2985 RMK A01 T01770045  RH  042%=      5-min Rain = 0
KSP2 081710Z 26020KT 18/04 A2985 RMK A01 T01770044  RH  041%=      5-min Rain = 0
KSP2 081711Z 26024G29KT 18/04 A2985 RMK A01 T01760044  RH  041%=      5-min Rain = 0
KSP2 081712Z 27022G28KT 18/04 A2985 RMK A01 T01760044  RH  042%=      5-min Rain = 0
KSP2 081713Z 26020G26KT 18/04 A2985 RMK A01 T01760044  RH  042%=      5-min Rain = 0
KSP2 081714Z 27024G30KT 18/05 A2985 RMK A01 T01760045  RH  042%=      5-min Rain = 0
KSP2 081715Z 26023G28KT 18/04 A2985 RMK A01 T01750044  RH  042%=      5-min Rain = 0
KSP2 081716Z 27023G28KT 18/04 A2985 RMK A01 T01750044  RH  042%=      5-min Rain = 0
KSP2 081717Z 27022G27KT 18/04 A2985 RMK A01 T01750044  RH  042%=      5-min Rain = 0
KSP2 081718Z 27018KT 18/04 A2985 RMK A01 T01750044  RH  042%=      5-min Rain = 0
KSP2 081719Z 26017KT 18/05 A2985 RMK A01 T01760046  RH  042%=      5-min Rain = 0
KSP2 081720Z 26019KT 18/05 A2985 RMK A01 T01760046  RH  042%=      5-min Rain = 0
KSP2 081721Z 27020KT 18/05 A2985 RMK A01 T01770045  RH  042%=      5-min Rain = 0
KSP2 081722Z 26023G29KT 18/05 A2985 RMK A01 T01770045  RH  041%=      5-min Rain = 0
KSP2 081723Z 26025KT 18/04 A2985 RMK A01 T01770043  RH  041%=      5-min Rain = 0
KSP2 081724Z 26025KT 18/04 A2985 RMK A01 T01780043  RH  041%=      5-min Rain = 0
KSP2 081725Z 26019KT 18/04 A2985 RMK A01 T01780044  RH  041%=      5-min Rain = 0
KSP2 081726Z 26020G25KT 18/05 A2985 RMK A01 T01780046  RH  041%=      5-min Rain = 0
KSP2 081727Z 26024G30KT 18/05 A2985 RMK A01 T01790045  RH  041%=      5-min Rain = 0
KSP2 081728Z 26021G30KT 18/04 A2985 RMK A01 T01790044  RH  041%=      5-min Rain = 0
KSP2 081729Z 26021KT 18/05 A2985 RMK A01 T01800045  RH  041%=      5-min Rain = 0
KSP2 081730Z 26021KT 18/05 A2985 RMK A01 T01800045  RH  041%=      5-min Rain = 0
KSP2 081731Z 26018KT 18/05 A2985 RMK A01 T01810046  RH  041%=      5-min Rain = 0
KSP2 081732Z 26017G22KT 18/05 A2985 RMK A01 T01820047  RH  041%=      5-min Rain = 0
KSP2 081733Z 26020KT 18/05 A2984 RMK A01 T01830046  RH  040%=      5-min Rain = 0
KSP2 081734Z 25023KT 18/05 A2984 RMK A01 T01830045  RH  040%=      5-min Rain = 0
KSP2 081735Z 25019G26KT 18/04 A2984 RMK A01 T01820044  RH  040%=      5-min Rain = 0
KSP2 081736Z 25022KT 18/05 A2984 RMK A01 T01820045  RH  040%=      5-min Rain = 0
KSP2 081737Z 26019G24KT 18/04 A2984 RMK A01 T01820044  RH  040%=      5-min Rain = 0
KSP2 081738Z 26019G25KT 18/05 A2984 RMK A01 T01820046  RH  040%=      5-min Rain = 0
KSP2 081739Z 26023KT 18/05 A2984 RMK A01 T01830045  RH  040%=      5-min Rain = 0
KSP2 081740Z 26023G31KT 18/05 A2984 RMK A01 T01820045  RH  040%=      5-min Rain = 0
KSP2 081741Z 26021KT 18/04 A2984 RMK A01 T01820044  RH  040%=      5-min Rain = 0
KSP2 081742Z 26023KT 18/05 A2984 RMK A01 T01820045  RH  040%=      5-min Rain = 0
KSP2 081743Z 27023KT 18/05 A2984 RMK A01 T01820045  RH  040%=      5-min Rain = 0
KSP2 081744Z 27023G29KT 18/05 A2984 RMK A01 T01810045  RH  040%=      5-min Rain = 0
KSP2 081745Z 27021G26KT 18/05 A2984 RMK A01 T01820045  RH  040%=      5-min Rain = 0
KSP2 081746Z 26019G24KT 18/05 A2984 RMK A01 T01810046  RH  041%=      5-min Rain = 0
KSP2 081747Z 26017G23KT 18/05 A2984 RMK A01 T01820047  RH  041%=      5-min Rain = 0
KSP2 081748Z 26020G26KT 18/05 A2984 RMK A01 T01840046  RH  040%=      5-min Rain = 0
KSP2 081749Z 26018G24KT 18/05 A2983 RMK A01 T01840045  RH  040%=      5-min Rain = 0
KSP2 081750Z 26020KT 18/05 A2983 RMK A01 T01840046  RH  040%=      5-min Rain = 0
KSP2 081751Z 26023G28KT 18/05 A2983 RMK A01 T01840045  RH  040%=      5-min Rain = 0
KSP2 081752Z 26022KT 18/04 A2983 RMK A01 T01840044  RH  040%=      5-min Rain = 0
KSP2 081753Z 26023KT 18/05 A2983 RMK A01 T01840045  RH  040%=      5-min Rain = 0
KSP2 081754Z 26020KT 18/05 A2983 RMK A01 T01840045  RH  040%=      5-min Rain = 0
KSP2 081755Z 26017KT 18/05 A2983 RMK A01 T01840046  RH  040%=      5-min Rain = 0
KSP2 081756Z 26014G20KT 19/05 A2983 RMK A01 T01860047  RH  040%=      5-min Rain = 0
KSP2 081757Z 26019G24KT 19/05 A2983 RMK A01 T01880047  RH  039%=      5-min Rain = 0
KSP2 081758Z 26017G22KT 19/05 A2983 RMK A01 T01900047  RH  039%=      5-min Rain = 0
KSP2 081759Z 26016G24KT 19/05 A2983 RMK A01 T01910047  RH  039%=      5-min Rain = 0
KSP2 081800Z 26023KT 19/05 A2983 RMK A01 T01920045  RH  038%=      5-min Rain = 0
KSP2 081801Z 26021G27KT 19/04 A2983 RMK A01 T01920044  RH  038%=      5-min Rain = 0
KSP2 081802Z 25017G22KT 19/05 A2983 RMK A01 T01920046  RH  038%=      5-min Rain = 0
KSP2 081803Z 25021G26KT 19/05 A2983 RMK A01 T01940046  RH  038%=      5-min Rain = 0
KSP2 081804Z 25014KT 19/05 A2983 RMK A01 T01940047  RH  038%=      5-min Rain = 0
KSP2 081805Z 25020G28KT 20/05 A2982 RMK A01 T01960047  RH  037%=      5-min Rain = 0
KSP2 081806Z 25021KT 20/05 A2982 RMK A01 T01960045  RH  037%=      5-min Rain = 0
KSP2 081807Z 25024KT 20/05 A2982 RMK A01 T01950045  RH  037%=      5-min Rain = 0
KSP2 081808Z 25024KT 20/04 A2982 RMK A01 T01950044  RH  037%=      5-min Rain = 0
KSP2 081809Z 25019KT 19/04 A2982 RMK A01 T01920044  RH  037%=      5-min Rain = 0
KSP2 081810Z 25015KT 19/05 A2982 RMK A01 T01930045  RH  038%=      5-min Rain = 0
KSP2 081811Z 25019G25KT 20/05 A2982 RMK A01 T01960047  RH  038%=      5-min Rain = 0
KSP2 081812Z 25023G29KT 20/05 A2981 RMK A01 T01970045  RH  037%=      5-min Rain = 0
KSP2 081813Z 25018KT 20/05 A2981 RMK A01 T01970045  RH  037%=      5-min Rain = 0
KSP2 081814Z 26019KT 20/05 A2981 RMK A01 T01980046  RH  037%=      5-min Rain = 0
KSP2 081815Z 26021G28KT 20/05 A2981 RMK A01 T01990046  RH  036%=      5-min Rain = 0
KSP2 081816Z 26024KT 20/04 A2981 RMK A01 T02000044  RH  036%=      5-min Rain = 0
KSP2 081817Z 26020KT 20/04 A2981 RMK A01 T01990043  RH  036%=      5-min Rain = 0
KSP2 081818Z 25018G23KT 20/04 A2981 RMK A01 T01990044  RH  036%=      5-min Rain = 0
KSP2 081819Z 25018G23KT 20/04 A2981 RMK A01 T01990044  RH  036%=      5-min Rain = 0
KSP2 081820Z 25023G30KT 20/04 A298 RMK A01 T01990043  RH  036%=      5-min Rain = 0
KSP2 081821Z 25024G31KT 20/04 A298 RMK A01 T01990041  RH  035%=      5-min Rain = 0
KSP2 081822Z 26027G32KT 20/04 A298 RMK A01 T01970038  RH  035%=      5-min Rain = 0
KSP2 081823Z 26022G28KT 20/04 A298 RMK A01 T01950039  RH  036%=      5-min Rain = 0
KSP2 081824Z 26021KT 20/04 A298 RMK A01 T01950040  RH  036%=      5-min Rain = 0
KSP2 081825Z 26019G26KT 20/04 A298 RMK A01 T01950041  RH  036%=      5-min Rain = 0
KSP2 081826Z 25025G30KT 20/04 A298 RMK A01 T01960040  RH  036%=      5-min Rain = 0
KSP2 081827Z 25024G29KT 20/04 A298 RMK A01 T01960038  RH  035%=      5-min Rain = 0
KSP2 081828Z 26020G26KT 20/04 A298 RMK A01 T01960040  RH  036%=      5-min Rain = 0
KSP2 081829Z 26022KT 20/04 A298 RMK A01 T01980041  RH  036%=      5-min Rain = 0
KSP2 081830Z 25017G22KT 20/04 A298 RMK A01 T01980041  RH  035%=      5-min Rain = 0
KSP2 081831Z 25019G24KT 20/04 A298 RMK A01 T01990042  RH  036%=      5-min Rain = 0
KSP2 081832Z 24021G26KT 20/04 A298 RMK A01 T02000042  RH  035%=      5-min Rain = 0
KSP2 081833Z 25024G29KT 20/04 A298 RMK A01 T02000041  RH  035%=      5-min Rain = 0
KSP2 081834Z 25024G29KT 20/04 A298 RMK A01 T02010040  RH  035%=      5-min Rain = 0
KSP2 081835Z 24021G27KT 20/04 A298 RMK A01 T02010041  RH  035%=      5-min Rain = 0
KSP2 081836Z 25023G30KT 20/04 A298 RMK A01 T02010041  RH  035%=      5-min Rain = 0
KSP2 081837Z 25022G29KT 20/04 A298 RMK A01 T02020039  RH  034%=      5-min Rain = 0
KSP2 081838Z 25017G26KT 20/04 A298 RMK A01 T02020041  RH  035%=      5-min Rain = 0
KSP2 081839Z 25020KT 20/04 A298 RMK A01 T02030042  RH  035%=      5-min Rain = 0
KSP2 081840Z 25017G22KT 20/04 A298 RMK A01 T02030042  RH  035%=      5-min Rain = 0
KSP2 081841Z 24024G30KT 20/04 A298 RMK A01 T02040042  RH  034%=      5-min Rain = 0
KSP2 081842Z 25022G30KT 20/04 A2979 RMK A01 T02040039  RH  034%=      5-min Rain = 0
KSP2 081843Z 26022G30KT 20/04 A2979 RMK A01 T02040039  RH  034%=      5-min Rain = 0
KSP2 081844Z 26024KT 21/04 A2979 RMK A01 T02050037  RH  033%=      5-min Rain = 0
KSP2 081845Z 26026G31KT 20/04 A2979 RMK A01 T02040037  RH  033%=      5-min Rain = 0
KSP2 081846Z 26026KT 20/04 A2979 RMK A01 T02030037  RH  034%=      5-min Rain = 0
KSP2 081847Z 26025KT 20/04 A2979 RMK A01 T02020038  RH  034%=      5-min Rain = 0
KSP2 081848Z 26019G25KT 20/04 A2979 RMK A01 T02020039  RH  034%=      5-min Rain = 0
KSP2 081849Z 25020G25KT 20/04 A2979 RMK A01 T02040041  RH  034%=      5-min Rain = 0
KSP2 081850Z 25016G21KT 21/04 A2979 RMK A01 T02060042  RH  034%=      5-min Rain = 0
KSP2 081851Z 25017G23KT 21/04 A2979 RMK A01 T02090043  RH  034%=      5-min Rain = 0
KSP2 081852Z 25020G25KT 21/04 A2979 RMK A01 T02100041  RH  033%=      5-min Rain = 0
KSP2 081853Z 25022KT 21/04 A2979 RMK A01 T02100039  RH  032%=      5-min Rain = 0
KSP2 081854Z 25024G30KT 21/04 A2978 RMK A01 T02100039  RH  032%=      5-min Rain = 0
KSP2 081855Z 25024G29KT 21/04 A2978 RMK A01 T02090039  RH  033%=      5-min Rain = 0
KSP2 081856Z 25027KT 21/04 A2978 RMK A01 T02090038  RH  033%=      5-min Rain = 0
KSP2 081857Z 26023G29KT 21/04 A2978 RMK A01 T02070039  RH  033%=      5-min Rain = 0
KSP2 081858Z 25024G32KT 21/04 A2978 RMK A01 T02060039  RH  033%=      5-min Rain = 0
KSP2 081859Z 25027KT 21/04 A2978 RMK A01 T02050038  RH  033%=      5-min Rain = 0
KSP2 081900Z 25024G33KT 21/04 A2978 RMK A01 T02050038  RH  033%=      5-min Rain = 0
KSP2 081901Z 25027G32KT 21/04 A2978 RMK A01 T02050037  RH  033%=      5-min Rain = 0
KSP2 081902Z 25025G31KT 21/04 A2978 RMK A01 T02050035  RH  033%=      5-min Rain = 0
KSP2 081903Z 25030G37KT 21/04 A2978 RMK A01 T02050036  RH  033%=      5-min Rain = 0
KSP2 081904Z 25026G32KT 20/04 A2978 RMK A01 T02040035  RH  033%=      5-min Rain = 0
KSP2 081905Z 25028KT 20/03 A2978 RMK A01 T02030034  RH  033%=      5-min Rain = 0
KSP2 081906Z 25024G30KT 20/03 A2978 RMK A01 T02030034  RH  033%=      5-min Rain = 0
KSP2 081907Z 25025G30KT 20/04 A2978 RMK A01 T02040035  RH  033%=      5-min Rain = 0
KSP2 081908Z 26027G33KT 20/04 A2978 RMK A01 T02040035  RH  033%=      5-min Rain = 0
KSP2 081909Z 24025G32KT 20/04 A2978 RMK A01 T02040036  RH  033%=      5-min Rain = 0
KSP2 081910Z 26024G30KT 21/04 A2978 RMK A01 T02050036  RH  033%=      5-min Rain = 0
KSP2 081911Z 25024G31KT 21/04 A2978 RMK A01 T02060036  RH  033%=      5-min Rain = 0
KSP2 081912Z 26023G29KT 21/04 A2978 RMK A01 T02060036  RH  033%=      5-min Rain = 0
KSP2 081913Z 26027G35KT 21/04 A2978 RMK A01 T02070037  RH  033%=      5-min Rain = 0
KSP2 081914Z 26026G31KT 21/04 A2978 RMK A01 T02060037  RH  033%=      5-min Rain = 0
KSP2 081915Z 26023G29KT 21/04 A2978 RMK A01 T02050037  RH  033%=      5-min Rain = 0
KSP2 081916Z 25019G30KT 21/04 A2978 RMK A01 T02050038  RH  033%=      5-min Rain = 0
KSP2 081917Z 24026G31KT 21/04 A2978 RMK A01 T02050036  RH  033%=      5-min Rain = 0
KSP2 081918Z 25024G30KT 20/04 A2978 RMK A01 T02040036  RH  033%=      5-min Rain = 0
KSP2 081919Z 25026G33KT 20/04 A2978 RMK A01 T02040036  RH  033%=      5-min Rain = 0
KSP2 081920Z 26021G27KT 20/04 A2978 RMK A01 T02030037  RH  033%=      5-min Rain = 0
KSP2 081921Z 25020G25KT 20/04 A2978 RMK A01 T02040038  RH  034%=      5-min Rain = 0
KSP2 081922Z 24021G29KT 21/04 A2978 RMK A01 T02050039  RH  033%=      5-min Rain = 0
KSP2 081923Z 25019KT 21/04 A2978 RMK A01 T02060038  RH  033%=      5-min Rain = 0
KSP2 081924Z 26022G31KT 21/04 A2978 RMK A01 T02070039  RH  033%=      5-min Rain = 0
KSP2 081925Z 25029KT 21/04 A2978 RMK A01 T02070037  RH  033%=      5-min Rain = 0
KSP2 081926Z 25026KT 21/04 A2978 RMK A01 T02070037  RH  033%=      5-min Rain = 0
KSP2 081927Z 25023KT 21/04 A2978 RMK A01 T02060038  RH  033%=      5-min Rain = 0
KSP2 081928Z 25020G28KT 21/04 A2978 RMK A01 T02060038  RH  033%=      5-min Rain = 0
KSP2 081929Z 25025G30KT 21/04 A2978 RMK A01 T02070037  RH  033%=      5-min Rain = 0
KSP2 081930Z 25023G28KT 21/04 A2978 RMK A01 T02070037  RH  033%=      5-min Rain = 0
KSP2 081931Z 26025G31KT 21/04 A2978 RMK A01 T02070038  RH  033%=      5-min Rain = 0
KSP2 081932Z 26024G31KT 21/04 A2978 RMK A01 T02050037  RH  033%=      5-min Rain = 0
KSP2 081933Z 25021G26KT 21/04 A2978 RMK A01 T02050038  RH  033%=      5-min Rain = 0
KSP2 081934Z 25022KT 21/04 A2978 RMK A01 T02050038  RH  033%=      5-min Rain = 0
KSP2 081935Z 26025G31KT 21/04 A2978 RMK A01 T02050038  RH  033%=      5-min Rain = 0
KSP2 081936Z 26025KT 21/04 A2978 RMK A01 T02050037  RH  033%=      5-min Rain = 0
KSP2 081937Z 26026G31KT 21/04 A2978 RMK A01 T02050036  RH  033%=      5-min Rain = 0
KSP2 081938Z 25025G30KT 21/04 A2978 RMK A01 T02050036  RH  033%=      5-min Rain = 0
KSP2 081939Z 25026G34KT 21/04 A2978 RMK A01 T02050035  RH  033%=      5-min Rain = 0
KSP2 081940Z 25026G32KT 21/04 A2978 RMK A01 T02060035  RH  032%=      5-min Rain = 0
KSP2 081941Z 25028G33KT 21/03 A2978 RMK A01 T02060034  RH  032%=      5-min Rain = 0
KSP2 081942Z 26022G28KT 21/03 A2978 RMK A01 T02060033  RH  032%=      5-min Rain = 0
KSP2 081943Z 25022G27KT 21/04 A2978 RMK A01 T02060035  RH  032%=      5-min Rain = 0
KSP2 081944Z 26028KT 21/04 A2977 RMK A01 T02080035  RH  032%=      5-min Rain = 0
KSP2 081945Z 26025G32KT 21/03 A2977 RMK A01 T02080034  RH  032%=      5-min Rain = 0
KSP2 081946Z 26024G32KT 21/03 A2977 RMK A01 T02070034  RH  032%=      5-min Rain = 0
KSP2 081947Z 26028G33KT 21/03 A2977 RMK A01 T02070033  RH  032%=      5-min Rain = 0
KSP2 081948Z 26026KT 21/03 A2977 RMK A01 T02070033  RH  032%=      5-min Rain = 0
KSP2 081949Z 27026G31KT 21/03 A2977 RMK A01 T02070034  RH  032%=      5-min Rain = 0
KSP2 081950Z 26026G31KT 21/03 A2977 RMK A01 T02070034  RH  032%=      5-min Rain = 0
KSP2 081951Z 26021G26KT 21/03 A2977 RMK A01 T02070034  RH  032%=      5-min Rain = 0
KSP2 081952Z 26021KT 21/04 A2977 RMK A01 T02080036  RH  032%=      5-min Rain = 0
KSP2 081953Z 27018G23KT 21/04 A2977 RMK A01 T02100037  RH  032%=      5-min Rain = 0
KSP2 081954Z 27022KT 21/04 A2977 RMK A01 T02100037  RH  032%=      5-min Rain = 0
KSP2 081955Z 27022KT 21/04 A2977 RMK A01 T02110036  RH  032%=      5-min Rain = 0
KSP2 081956Z 26021G27KT 21/04 A2977 RMK A01 T02120037  RH  032%=      5-min Rain = 0
KSP2 081957Z 26020KT 21/04 A2976 RMK A01 T02120037  RH  032%=      5-min Rain = 0
KSP2 081958Z 26018KT 21/04 A2976 RMK A01 T02130037  RH  031%=      5-min Rain = 0
KSP2 081959Z 26023G29KT 21/04 A2976 RMK A01 T02140038  RH  031%=      5-min Rain = 0
KSP2 082000Z 26024G29KT 21/04 A2976 RMK A01 T02130035  RH  031%=      5-min Rain = 0
KSP2 082001Z 26022G27KT 21/04 A2976 RMK A01 T02120036  RH  031%=      5-min Rain = 0
KSP2 082002Z 25020KT 21/04 A2976 RMK A01 T02120037  RH  032%=      5-min Rain = 0
KSP2 082003Z 25021KT 21/04 A2976 RMK A01 T02120036  RH  031%=      5-min Rain = 0
KSP2 082004Z 25026KT 21/04 A2976 RMK A01 T02130036  RH  031%=      5-min Rain = 0
KSP2 082005Z 25024G29KT 21/04 A2976 RMK A01 T02120035  RH  031%=      5-min Rain = 0
KSP2 082006Z 24025G33KT 21/04 A2976 RMK A01 T02120035  RH  031%=      5-min Rain = 0
KSP2 082007Z 25024G29KT 21/04 A2976 RMK A01 T02110035  RH  031%=      5-min Rain = 0
KSP2 082008Z 25027G33KT 21/03 A2976 RMK A01 T02110034  RH  031%=      5-min Rain = 0
KSP2 082009Z 25023KT 21/03 A2976 RMK A01 T02110034  RH  031%=      5-min Rain = 0
KSP2 082010Z 25026G33KT 21/03 A2975 RMK A01 T02110034  RH  031%=      5-min Rain = 0
KSP2 082011Z 25023G30KT 21/03 A2976 RMK A01 T02110034  RH  031%=      5-min Rain = 0
KSP2 082012Z 25025G31KT 21/03 A2976 RMK A01 T02110033  RH  031%=      5-min Rain = 0
KSP2 082013Z 26025G31KT 21/03 A2976 RMK A01 T02110033  RH  031%=      5-min Rain = 0
KSP2 082014Z 25025KT 21/03 A2976 RMK A01 T02110034  RH  031%=      5-min Rain = 0
KSP2 082015Z 26020G26KT 21/04 A2976 RMK A01 T02110036  RH  032%=      5-min Rain = 0
KSP2 082016Z 25027G34KT 21/04 A2976 RMK A01 T02110036  RH  032%=      5-min Rain = 0
KSP2 082017Z 25026G32KT 21/03 A2976 RMK A01 T02110034  RH  031%=      5-min Rain = 0
KSP2 082018Z 25025G31KT 21/03 A2976 RMK A01 T02110034  RH  031%=      5-min Rain = 0
KSP2 082019Z 25024G30KT 21/04 A2976 RMK A01 T02110035  RH  031%=      5-min Rain = 0
KSP2 082020Z 26024G29KT 21/04 A2976 RMK A01 T02120035  RH  031%=      5-min Rain = 0
KSP2 082021Z 26025KT 21/04 A2976 RMK A01 T02130036  RH  031%=      5-min Rain = 0
KSP2 082022Z 25023G29KT 21/04 A2976 RMK A01 T02130037  RH  031%=      5-min Rain = 0
KSP2 082023Z 25018KT 21/04 A2976 RMK A01 T02130037  RH  031%=      5-min Rain = 0
KSP2 082024Z 25025G31KT 21/04 A2976 RMK A01 T02140037  RH  031%=      5-min Rain = 0
KSP2 082025Z 25027G32KT 22/04 A2975 RMK A01 T02150035  RH  031%=      5-min Rain = 0
KSP2 082026Z 25023G30KT 22/04 A2975 RMK A01 T02150035  RH  031%=      5-min Rain = 0
KSP2 082027Z 26023G29KT 22/04 A2975 RMK A01 T02160036  RH  031%=      5-min Rain = 0
KSP2 082028Z 26021G27KT 22/04 A2975 RMK A01 T02170036  RH  031%=      5-min Rain = 0
KSP2 082029Z 26021G26KT 22/04 A2975 RMK A01 T02170038  RH  031%=      5-min Rain = 0
KSP2 082030Z 27019G24KT 22/04 A2975 RMK A01 T02180038  RH  031%=      5-min Rain = 0
KSP2 082031Z 26019KT 22/04 A2975 RMK A01 T02180039  RH  031%=      5-min Rain = 0
KSP2 082032Z 25024G30KT 22/04 A2975 RMK A01 T02180038  RH  031%=      5-min Rain = 0
KSP2 082033Z 25022G30KT 22/04 A2975 RMK A01 T02180037  RH  030%=      5-min Rain = 0
KSP2 082034Z 25019G26KT 22/04 A2975 RMK A01 T02170037  RH  030%=      5-min Rain = 0
KSP2 082035Z 25021G33KT 22/04 A2975 RMK A01 T02180037  RH  030%=      5-min Rain = 0
KSP2 082036Z 25026G31KT 22/04 A2975 RMK A01 T02190037  RH  030%=      5-min Rain = 0
KSP2 082037Z 25024G29KT 22/04 A2975 RMK A01 T02190037  RH  030%=      5-min Rain = 0
KSP2 082038Z 26022KT 22/04 A2975 RMK A01 T02200039  RH  030%=      5-min Rain = 0
KSP2 082039Z 26021G27KT 22/04 A2975 RMK A01 T02220040  RH  030%=      5-min Rain = 0
KSP2 082040Z 26023G29KT 22/04 A2975 RMK A01 T02240039  RH  030%=      5-min Rain = 0
KSP2 082041Z 26020KT 22/04 A2975 RMK A01 T02230038  RH  030%=      5-min Rain = 0
KSP2 082042Z 26019G24KT 22/04 A2975 RMK A01 T02230039  RH  030%=      5-min Rain = 0
KSP2 082043Z 25025G31KT 22/04 A2975 RMK A01 T02230038  RH  030%=      5-min Rain = 0
KSP2 082044Z 25021G26KT 22/04 A2975 RMK A01 T02230039  RH  030%=      5-min Rain = 0
KSP2 082045Z 25021G28KT 22/04 A2975 RMK A01 T02220038  RH  030%=      5-min Rain = 0
KSP2 082046Z 25024KT 22/04 A2975 RMK A01 T02220039  RH  030%=      5-min Rain = 0
KSP2 082047Z 26032KT 22/04 A2975 RMK A01 T02220038  RH  030%=      5-min Rain = 0
KSP2 082048Z 26029G35KT 22/04 A2975 RMK A01 T02210038  RH  030%=      5-min Rain = 0
KSP2 082049Z 26022G30KT 22/04 A2975 RMK A01 T02200039  RH  030%=      5-min Rain = 0
KSP2 082050Z 25027G33KT 22/04 A2975 RMK A01 T02220039  RH  030%=      5-min Rain = 0
KSP2 082051Z 25026G31KT 22/04 A2975 RMK A01 T02220037  RH  030%=      5-min Rain = 0
KSP2 082052Z 27026G33KT 22/04 A2975 RMK A01 T02210038  RH  030%=      5-min Rain = 0
KSP2 082053Z 27024KT 22/04 A2975 RMK A01 T02220040  RH  030%=      5-min Rain = 0
KSP2 082054Z 26029G35KT 22/04 A2975 RMK A01 T02220039  RH  030%=      5-min Rain = 0
KSP2 082055Z 26025KT 22/04 A2975 RMK A01 T02220039  RH  030%=      5-min Rain = 0
KSP2 082056Z 25018G24KT 22/04 A2975 RMK A01 T02230041  RH  030%=      5-min Rain = 0
KSP2 082057Z 25017KT 23/04 A2975 RMK A01 T02250042  RH  030%=      5-min Rain = 0
KSP2 082058Z 25025G33KT 23/04 A2975 RMK A01 T02270042  RH  030%=      5-min Rain = 0
KSP2 082059Z 25026KT 23/04 A2975 RMK A01 T02260039  RH  029%=      5-min Rain = 0
KSP2 082100Z 25021G26KT 22/04 A2975 RMK A01 T02220038  RH  030%=      5-min Rain = 0
KSP2 082101Z 26024G31KT 22/04 A2975 RMK A01 T02210040  RH  031%=      5-min Rain = 0
KSP2 082102Z 26025G30KT 22/04 A2975 RMK A01 T02200040  RH  031%=      5-min Rain = 0
KSP2 082103Z 26028G35KT 22/04 A2975 RMK A01 T02190039  RH  031%=      5-min Rain = 0
KSP2 082104Z 25025G30KT 22/04 A2975 RMK A01 T02180040  RH  031%=      5-min Rain = 0
KSP2 082105Z 25030G36KT 22/04 A2975 RMK A01 T02180040  RH  031%=      5-min Rain = 0
KSP2 082106Z 26025G31KT 22/04 A2975 RMK A01 T02180040  RH  031%=      5-min Rain = 0
KSP2 082107Z 26021G30KT 22/04 A2975 RMK A01 T02180041  RH  031%=      5-min Rain = 0
KSP2 082108Z 26024G34KT 22/04 A2975 RMK A01 T02190042  RH  031%=      5-min Rain = 0
KSP2 082109Z 26024G31KT 22/04 A2975 RMK A01 T02180041  RH  031%=      5-min Rain = 0
KSP2 082110Z 25022G27KT 22/04 A2975 RMK A01 T02170041  RH  031%=      5-min Rain = 0
KSP2 082111Z 25022G27KT 22/04 A2975 RMK A01 T02170041  RH  032%=      5-min Rain = 0
KSP2 082112Z 25027G32KT 22/04 A2975 RMK A01 T02170041  RH  032%=      5-min Rain = 0
KSP2 082113Z 26026G33KT 22/04 A2975 RMK A01 T02170042  RH  032%=      5-min Rain = 0
KSP2 082114Z 25026G35KT 22/04 A2975 RMK A01 T02170042  RH  032%=      5-min Rain = 0
KSP2 082115Z 25024G31KT 22/04 A2975 RMK A01 T02180042  RH  031%=      5-min Rain = 0
KSP2 082116Z 26025G30KT 22/04 A2975 RMK A01 T02190043  RH  032%=      5-min Rain = 0
KSP2 082117Z 25028KT 22/04 A2975 RMK A01 T02190042  RH  031%=      5-min Rain = 0
KSP2 082118Z 26028KT 22/04 A2975 RMK A01 T02190042  RH  031%=      5-min Rain = 0
KSP2 082119Z 26029KT 22/04 A2975 RMK A01 T02190042  RH  032%=      5-min Rain = 0
KSP2 082120Z 25029G34KT 22/04 A2975 RMK A01 T02180042  RH  032%=      5-min Rain = 0
KSP2 082121Z 26028G36KT 22/04 A2975 RMK A01 T02180043  RH  032%=      5-min Rain = 0
KSP2 082122Z 26030KT 22/04 A2975 RMK A01 T02170042  RH  032%=      5-min Rain = 0
KSP2 082123Z 26023G29KT 22/04 A2975 RMK A01 T02150043  RH  032%=      5-min Rain = 0
KSP2 082124Z 26025G33KT 22/04 A2975 RMK A01 T02150044  RH  032%=      5-min Rain = 0
KSP2 082125Z 26021G30KT 22/04 A2975 RMK A01 T02160044  RH  033%=      5-min Rain = 0
KSP2 082126Z 25024G29KT 22/04 A2974 RMK A01 T02150044  RH  032%=      5-min Rain = 0
KSP2 082127Z 26022G28KT 22/04 A2975 RMK A01 T02160044  RH  032%=      5-min Rain = 0
KSP2 082128Z 26021G27KT 22/04 A2975 RMK A01 T02160044  RH  032%=      5-min Rain = 0
KSP2 082129Z 25022G30KT 22/05 A2975 RMK A01 T02160045  RH  033%=      5-min Rain = 0
KSP2 082130Z 25024G32KT 22/04 A2975 RMK A01 T02160044  RH  032%=      5-min Rain = 0
KSP2 082131Z 26025G33KT 22/04 A2975 RMK A01 T02160043  RH  032%=      5-min Rain = 0
KSP2 082132Z 26029KT 22/04 A2975 RMK A01 T02150042  RH  032%=      5-min Rain = 0
KSP2 082133Z 26024G34KT 21/04 A2975 RMK A01 T02130041  RH  032%=      5-min Rain = 0
KSP2 082134Z 26026KT 21/04 A2975 RMK A01 T02130041  RH  032%=      5-min Rain = 0
KSP2 082135Z 26023G28KT 21/04 A2975 RMK A01 T02120041  RH  033%=      5-min Rain = 0
KSP2 082136Z 26021G26KT 21/04 A2975 RMK A01 T02110041  RH  033%=      5-min Rain = 0
KSP2 082137Z 26021G29KT 21/04 A2975 RMK A01 T02110042  RH  033%=      5-min Rain = 0
KSP2 082138Z 26025G34KT 21/04 A2975 RMK A01 T02110043  RH  033%=      5-min Rain = 0
KSP2 082139Z 25028G35KT 21/04 A2975 RMK A01 T02110041  RH  033%=      5-min Rain = 0
KSP2 082140Z 25022G32KT 21/04 A2975 RMK A01 T02110040  RH  033%=      5-min Rain = 0
KSP2 082141Z 25026G35KT 21/04 A2975 RMK A01 T02110040  RH  032%=      5-min Rain = 0
KSP2 082142Z 26027G36KT 21/04 A2975 RMK A01 T02110039  RH  032%=      5-min Rain = 0
KSP2 082143Z 26027G33KT 21/04 A2975 RMK A01 T02110039  RH  032%=      5-min Rain = 0
KSP2 082144Z 26029G36KT 21/04 A2975 RMK A01 T02110039  RH  032%=      5-min Rain = 0
KSP2 082145Z 27026G31KT 21/04 A2975 RMK A01 T02100039  RH  033%=      5-min Rain = 0
KSP2 082146Z 26025G34KT 21/04 A2975 RMK A01 T02090040  RH  033%=      5-min Rain = 0
KSP2 082147Z 26028KT 21/04 A2975 RMK A01 T02090040  RH  033%=      5-min Rain = 0
KSP2 082148Z 26026G34KT 21/04 A2975 RMK A01 T02090040  RH  033%=      5-min Rain = 0
KSP2 082149Z 26024G31KT 21/04 A2975 RMK A01 T02080041  RH  033%=      5-min Rain = 0
KSP2 082150Z 26022G28KT 21/04 A2975 RMK A01 T02080041  RH  033%=      5-min Rain = 0
KSP2 082151Z 26027G34KT 21/04 A2975 RMK A01 T02080041  RH  033%=      5-min Rain = 0
KSP2 082152Z 26024G32KT 21/04 A2974 RMK A01 T02080041  RH  034%=      5-min Rain = 0
KSP2 082153Z 26022G27KT 21/04 A2974 RMK A01 T02070042  RH  034%=      5-min Rain = 0
KSP2 082154Z 26022G30KT 21/04 A2974 RMK A01 T02070042  RH  034%=      5-min Rain = 0
KSP2 082155Z 26022G28KT 21/04 A2974 RMK A01 T02060042  RH  034%=      5-min Rain = 0
KSP2 082156Z 26025KT 21/04 A2974 RMK A01 T02060042  RH  034%=      5-min Rain = 0
KSP2 082157Z 26020G26KT 21/04 A2973 RMK A01 T02060042  RH  034%=      5-min Rain = 0
KSP2 082158Z 26022G30KT 21/04 A2973 RMK A01 T02060042  RH  034%=      5-min Rain = 0
KSP2 082159Z 26027G33KT 21/04 A2973 RMK A01 T02060042  RH  034%=      5-min Rain = 0
KSP2 082200Z 26023G30KT 21/04 A2974 RMK A01 T02060042  RH  034%=      5-min Rain = 0
KSP2 082201Z 26020G25KT 21/04 A2974 RMK A01 T02060042  RH  034%=      5-min Rain = 0
KSP2 082202Z 25022G28KT 21/04 A2974 RMK A01 T02050042  RH  034%=      5-min Rain = 0
KSP2 082203Z 25016KT 21/04 A2974 RMK A01 T02050042  RH  034%=      5-min Rain = 0
KSP2 082204Z 25024G29KT 21/04 A2974 RMK A01 T02050042  RH  034%=      5-min Rain = 0
KSP2 082205Z 26022G29KT 21/04 A2974 RMK A01 T02050041  RH  034%=      5-min Rain = 0
KSP2 082206Z 26025KT 21/04 A2974 RMK A01 T02050041  RH  034%=      5-min Rain = 0
KSP2 082207Z 26025KT 21/04 A2974 RMK A01 T02050041  RH  034%=      5-min Rain = 0
KSP2 082208Z 25023G30KT 21/04 A2974 RMK A01 T02050041  RH  034%=      5-min Rain = 0
KSP2 082209Z 26023G31KT 21/04 A2974 RMK A01 T02050041  RH  034%=      5-min Rain = 0
KSP2 082210Z 26026G34KT 21/04 A2974 RMK A01 T02050041  RH  034%=      5-min Rain = 0
KSP2 082211Z 26024KT 21/04 A2974 RMK A01 T02050042  RH  034%=      5-min Rain = 0
KSP2 082212Z 26024G30KT 21/04 A2974 RMK A01 T02050042  RH  034%=      5-min Rain = 0
KSP2 082213Z 25025G30KT 21/04 A2974 RMK A01 T02050042  RH  034%=      5-min Rain = 0
KSP2 082214Z 25023KT 21/04 A2974 RMK A01 T02050042  RH  034%=      5-min Rain = 0
KSP2 082215Z 26019KT 21/04 A2974 RMK A01 T02050042  RH  034%=      5-min Rain = 0
KSP2 082216Z 26027G33KT 21/04 A2974 RMK A01 T02050043  RH  035%=      5-min Rain = 0
KSP2 082217Z 26020G27KT 21/04 A2974 RMK A01 T02050043  RH  035%=      5-min Rain = 0
KSP2 082218Z 26027G34KT 20/04 A2974 RMK A01 T02040044  RH  035%=      5-min Rain = 0
KSP2 082219Z 26024G33KT 20/04 A2974 RMK A01 T02040044  RH  035%=      5-min Rain = 0
KSP2 082220Z 26022G29KT 20/04 A2974 RMK A01 T02040044  RH  035%=      5-min Rain = 0
KSP2 082221Z 26021G26KT 20/05 A2974 RMK A01 T02040045  RH  035%=      5-min Rain = 0
KSP2 082222Z 26021G26KT 20/05 A2974 RMK A01 T02030045  RH  035%=      5-min Rain = 0
KSP2 082223Z 25022G29KT 20/05 A2974 RMK A01 T02030045  RH  035%=      5-min Rain = 0
KSP2 082224Z 25018G24KT 20/05 A2974 RMK A01 T02030045  RH  035%=      5-min Rain = 0
KSP2 082225Z 25020G25KT 20/05 A2974 RMK A01 T02030045  RH  035%=      5-min Rain = 0
KSP2 082226Z 25021G27KT 20/04 A2974 RMK A01 T02030044  RH  035%=      5-min Rain = 0
KSP2 082227Z 25021G30KT 20/05 A2974 RMK A01 T02030045  RH  035%=      5-min Rain = 0
KSP2 082228Z 26022G29KT 20/05 A2974 RMK A01 T02030045  RH  035%=      5-min Rain = 0
KSP2 082229Z 25021KT 20/05 A2974 RMK A01 T02030045  RH  035%=      5-min Rain = 0
KSP2 082230Z 25019KT 20/05 A2974 RMK A01 T02030045  RH  036%=      5-min Rain = 0
KSP2 082231Z 25021G26KT 20/05 A2974 RMK A01 T02020045  RH  036%=      5-min Rain = 0
KSP2 082232Z 25025G30KT 20/05 A2974 RMK A01 T02020045  RH  036%=      5-min Rain = 0
KSP2 082233Z 25021G26KT 20/05 A2974 RMK A01 T02020045  RH  036%=      5-min Rain = 0
KSP2 082234Z 25022KT 20/05 A2974 RMK A01 T02020045  RH  036%=      5-min Rain = 0
KSP2 082235Z 25017G23KT 20/05 A2974 RMK A01 T02020045  RH  036%=      5-min Rain = 0
KSP2 082236Z 25018KT 20/05 A2974 RMK A01 T02010046  RH  036%=      5-min Rain = 0
KSP2 082237Z 25017KT 20/05 A2974 RMK A01 T02010046  RH  036%=      5-min Rain = 0
KSP2 082238Z 25020G25KT 20/05 A2974 RMK A01 T02000046  RH  036%=      5-min Rain = 0
KSP2 082239Z 25020KT 20/05 A2974 RMK A01 T02000045  RH  036%=      5-min Rain = 0
KSP2 082240Z 25020G25KT 20/05 A2974 RMK A01 T02000046  RH  036%=      5-min Rain = 0
KSP2 082241Z 25019G24KT 20/05 A2974 RMK A01 T02000046  RH  036%=      5-min Rain = 0
KSP2 082242Z 25021KT 20/05 A2974 RMK A01 T02000046  RH  036%=      5-min Rain = 0
KSP2 082243Z 25020G26KT 20/05 A2974 RMK A01 T02000046  RH  036%=      5-min Rain = 0
KSP2 082244Z 25018G24KT 20/05 A2974 RMK A01 T02000046  RH  036%=      5-min Rain = 0
KSP2 082245Z 25019G24KT 20/05 A2974 RMK A01 T01990046  RH  036%=      5-min Rain = 0
KSP2 082246Z 25019KT 20/05 A2974 RMK A01 T01990047  RH  037%=      5-min Rain = 0
KSP2 082247Z 25023G29KT 20/05 A2975 RMK A01 T01990046  RH  037%=      5-min Rain = 0
KSP2 082248Z 25024G29KT 20/05 A2975 RMK A01 T01990047  RH  037%=      5-min Rain = 0
KSP2 082249Z 25022KT 20/05 A2975 RMK A01 T01980047  RH  037%=      5-min Rain = 0
KSP2 082250Z 25019KT 20/05 A2975 RMK A01 T01980047  RH  037%=      5-min Rain = 0
KSP2 082251Z 25022G29KT 20/05 A2975 RMK A01 T01980047  RH  037%=      5-min Rain = 0
KSP2 082252Z 25022G29KT 20/05 A2975 RMK A01 T01980047  RH  037%=      5-min Rain = 0
KSP2 082253Z 25024G31KT 20/05 A2975 RMK A01 T01970046  RH  037%=      5-min Rain = 0
KSP2 082254Z 25024G29KT 20/05 A2975 RMK A01 T01980046  RH  037%=      5-min Rain = 0
KSP2 082255Z 25022KT 20/05 A2975 RMK A01 T01980046  RH  037%=      5-min Rain = 0
KSP2 082256Z 25021G27KT 20/05 A2975 RMK A01 T01980046  RH  037%=      5-min Rain = 0
KSP2 082257Z 25023G28KT 20/05 A2975 RMK A01 T01980046  RH  037%=      5-min Rain = 0
KSP2 082258Z 25022KT 20/05 A2975 RMK A01 T01970046  RH  037%=      5-min Rain = 0
KSP2 082259Z 25021KT 20/05 A2975 RMK A01 T01970046  RH  037%=      5-min Rain = 0
KSP2 082300Z 25022G29KT 20/05 A2975 RMK A01 T01960046  RH  037%=      5-min Rain = 0
KSP2 082301Z 25020G26KT 20/05 A2975 RMK A01 T01960046  RH  037%=      5-min Rain = 0
KSP2 082302Z 25022KT 20/05 A2975 RMK A01 T01950046  RH  037%=      5-min Rain = 0
KSP2 082303Z 25024KT 20/05 A2975 RMK A01 T01950046  RH  037%=      5-min Rain = 0
KSP2 082304Z 25021G28KT 20/05 A2975 RMK A01 T01950046  RH  037%=      5-min Rain = 0
KSP2 082305Z 25024KT 20/05 A2975 RMK A01 T01950046  RH  037%=      5-min Rain = 0
KSP2 082306Z 25022G27KT 20/05 A2975 RMK A01 T01950046  RH  038%=      5-min Rain = 0
KSP2 082307Z 25023G28KT 20/05 A2975 RMK A01 T01950046  RH  038%=      5-min Rain = 0
KSP2 082308Z 25024G29KT 19/05 A2975 RMK A01 T01940046  RH  038%=      5-min Rain = 0
KSP2 082309Z 25024G29KT 19/05 A2975 RMK A01 T01940046  RH  038%=      5-min Rain = 0
KSP2 082310Z 25020G26KT 20/05 A2975 RMK A01 T01950046  RH  038%=      5-min Rain = 0
KSP2 082311Z 25020KT 19/05 A2975 RMK A01 T01940046  RH  038%=      5-min Rain = 0
KSP2 082312Z 24021KT 19/05 A2975 RMK A01 T01930047  RH  038%=      5-min Rain = 0
KSP2 082313Z 25022KT 19/05 A2975 RMK A01 T01920046  RH  038%=      5-min Rain = 0
KSP2 082314Z 25020G26KT 19/05 A2975 RMK A01 T01920047  RH  038%=      5-min Rain = 0
KSP2 082315Z 25020G26KT 19/05 A2975 RMK A01 T01920047  RH  038%=      5-min Rain = 0
KSP2 082316Z 25020KT 19/05 A2975 RMK A01 T01910047  RH  039%=      5-min Rain = 0
KSP2 082317Z 25022G27KT 19/05 A2975 RMK A01 T01910047  RH  039%=      5-min Rain = 0
KSP2 082318Z 25018G23KT 19/05 A2975 RMK A01 T01910047  RH  039%=      5-min Rain = 0
KSP2 082319Z 25020G25KT 19/05 A2975 RMK A01 T01900048  RH  039%=      5-min Rain = 0
KSP2 082320Z 25020KT 19/05 A2976 RMK A01 T01900048  RH  039%=      5-min Rain = 0
KSP2 082321Z 25016G21KT 19/05 A2976 RMK A01 T01890048  RH  039%=      5-min Rain = 0
KSP2 082322Z 25020KT 19/05 A2976 RMK A01 T01880047  RH  039%=      5-min Rain = 0
KSP2 082323Z 25024G29KT 19/05 A2975 RMK A01 T01880048  RH  040%=      5-min Rain = 0
KSP2 082324Z 25022KT 19/05 A2975 RMK A01 T01890048  RH  039%=      5-min Rain = 0
KSP2 082325Z 25024KT 19/05 A2975 RMK A01 T01900048  RH  039%=      5-min Rain = 0
KSP2 082326Z 25021G27KT 19/05 A2975 RMK A01 T01900048  RH  039%=      5-min Rain = 0
KSP2 082327Z 24017KT 19/05 A2975 RMK A01 T01890048  RH  039%=      5-min Rain = 0
KSP2 082328Z 24019G24KT 19/05 A2975 RMK A01 T01880048  RH  040%=      5-min Rain = 0
KSP2 082329Z 25020G25KT 19/05 A2976 RMK A01 T01870048  RH  040%=      5-min Rain = 0
KSP2 082330Z 24019G25KT 19/05 A2976 RMK A01 T01870049  RH  040%=      5-min Rain = 0
KSP2 082331Z 25019KT 19/05 A2975 RMK A01 T01860048  RH  040%=      5-min Rain = 0
KSP2 082332Z 24016KT 19/05 A2975 RMK A01 T01860049  RH  040%=      5-min Rain = 0
KSP2 082333Z 25018G23KT 19/05 A2975 RMK A01 T01860049  RH  040%=      5-min Rain = 0
KSP2 082334Z 25019G24KT 19/05 A2975 RMK A01 T01850049  RH  041%=      5-min Rain = 0
KSP2 082335Z 24019G28KT 19/05 A2975 RMK A01 T01850049  RH  041%=      5-min Rain = 0
KSP2 082336Z 25020KT 19/05 A2975 RMK A01 T01850049  RH  041%=      5-min Rain = 0
KSP2 082337Z 25019G24KT 19/05 A2975 RMK A01 T01860049  RH  040%=      5-min Rain = 0
KSP2 082338Z 24016KT 19/05 A2975 RMK A01 T01860049  RH  040%=      5-min Rain = 0
KSP2 082339Z 24019KT 19/05 A2975 RMK A01 T01850049  RH  041%=      5-min Rain = 0
KSP2 082340Z 24021KT 18/05 A2975 RMK A01 T01840049  RH  041%=      5-min Rain = 0
KSP2 082341Z 24020G25KT 18/05 A2975 RMK A01 T01840049  RH  041%=      5-min Rain = 0
KSP2 082342Z 24018KT 18/05 A2975 RMK A01 T01840049  RH  041%=      5-min Rain = 0
KSP2 082343Z 24019G24KT 18/05 A2975 RMK A01 T01840049  RH  041%=      5-min Rain = 0
KSP2 082344Z 25018G23KT 18/05 A2975 RMK A01 T01830049  RH  041%=      5-min Rain = 0
KSP2 082345Z 24016KT 18/05 A2975 RMK A01 T01830049  RH  041%=      5-min Rain = 0
KSP2 082346Z 24017G23KT 18/05 A2975 RMK A01 T01820049  RH  041%=      5-min Rain = 0
KSP2 082347Z 25019KT 18/05 A2975 RMK A01 T01820049  RH  042%=      5-min Rain = 0
KSP2 082348Z 24019G24KT 18/05 A2975 RMK A01 T01820050  RH  042%=      5-min Rain = 0
KSP2 082349Z 24018KT 18/05 A2975 RMK A01 T01820049  RH  042%=      5-min Rain = 0
KSP2 082350Z 24016G21KT 18/05 A2975 RMK A01 T01820049  RH  042%=      5-min Rain = 0
KSP2 082351Z 25018KT 18/05 A2975 RMK A01 T01810049  RH  042%=      5-min Rain = 0
KSP2 082352Z 24017G22KT 18/05 A2975 RMK A01 T01810050  RH  042%=      5-min Rain = 0
KSP2 082353Z 24017G23KT 18/05 A2975 RMK A01 T01810049  RH  042%=      5-min Rain = 0
KSP2 082354Z 24015KT 18/05 A2976 RMK A01 T01810050  RH  042%=      5-min Rain = 0
KSP2 082355Z 25017KT 18/05 A2976 RMK A01 T01810050  RH  042%=      5-min Rain = 0
KSP2 082356Z 24018G25KT 18/05 A2976 RMK A01 T01810050  RH  042%=      5-min Rain = 0
KSP2 082357Z 24018G23KT 18/05 A2976 RMK A01 T01810050  RH  042%=      5-min Rain = 0
KSP2 082358Z 25013KT 18/05 A2976 RMK A01 T01810050  RH  042%=      5-min Rain = 0
KSP2 082359Z 24015G23KT 18/05 A2976 RMK A01 T01810050  RH  042%=      5-min Rain = 0
KSP2 090000Z 24016G21KT 18/05 A2976 RMK A01 T01800050  RH  042%=      5-min Rain = 0
KSP2 090001Z 24015KT 18/05 A2976 RMK A01 T01790050  RH  042%=      5-min Rain = 0
KSP2 090002Z 24015KT 18/05 A2976 RMK A01 T01790050  RH  043%=      5-min Rain = 0
KSP2 090003Z 24015KT 18/05 A2976 RMK A01 T01780050  RH  043%=      5-min Rain = 0
KSP2 090004Z 24017G25KT 18/05 A2976 RMK A01 T01780050  RH  043%=      5-min Rain = 0
KSP2 090005Z 24017G22KT 18/05 A2976 RMK A01 T01790050  RH  043%=      5-min Rain = 0
KSP2 090006Z 25017G23KT 18/05 A2976 RMK A01 T01790050  RH  043%=      5-min Rain = 0
KSP2 090007Z 24017G22KT 18/05 A2976 RMK A01 T01800050  RH  042%=      5-min Rain = 0
KSP2 090008Z 24015G20KT 18/05 A2976 RMK A01 T01800050  RH  042%=      5-min Rain = 0
KSP2 090009Z 24016G22KT 18/05 A2976 RMK A01 T01800050  RH  042%=      5-min Rain = 0
KSP2 090010Z 24018KT 18/05 A2976 RMK A01 T01790050  RH  043%=      5-min Rain = 0
KSP2 090011Z 25016G22KT 18/05 A2976 RMK A01 T01790050  RH  043%=      5-min Rain = 0
KSP2 090012Z 25016KT 18/05 A2976 RMK A01 T01790050  RH  043%=      5-min Rain = 0
KSP2 090013Z 24018KT 18/05 A2976 RMK A01 T01790050  RH  043%=      5-min Rain = 0
KSP2 090014Z 24016G21KT 18/05 A2976 RMK A01 T01790050  RH  043%=      5-min Rain = 0
KSP2 090015Z 25016G21KT 18/05 A2976 RMK A01 T01790050  RH  043%=      5-min Rain = 0
KSP2 090016Z 24016G22KT 18/05 A2976 RMK A01 T01790050  RH  043%=      5-min Rain = 0
KSP2 090017Z 25017G22KT 18/05 A2976 RMK A01 T01780050  RH  043%=      5-min Rain = 0
KSP2 090018Z 25015KT 18/05 A2976 RMK A01 T01770050  RH  043%=      5-min Rain = 0
KSP2 090019Z 25016KT 18/05 A2976 RMK A01 T01770050  RH  043%=      5-min Rain = 0
KSP2 090020Z 25015KT 18/05 A2976 RMK A01 T01760050  RH  043%=      5-min Rain = 0
KSP2 090021Z 25014G19KT 18/05 A2976 RMK A01 T01760050  RH  043%=      5-min Rain = 0
KSP2 090022Z 25015G20KT 18/05 A2976 RMK A01 T01750050  RH  044%=      5-min Rain = 0
KSP2 090023Z 25017KT 18/05 A2976 RMK A01 T01750050  RH  044%=      5-min Rain = 0
KSP2 090024Z 25015KT 18/05 A2976 RMK A01 T01760050  RH  043%=      5-min Rain = 0
KSP2 090025Z 25016KT 18/05 A2976 RMK A01 T01760050  RH  043%=      5-min Rain = 0
KSP2 090026Z 25017KT 18/05 A2976 RMK A01 T01760050  RH  043%=      5-min Rain = 0
KSP2 090027Z 25018KT 18/05 A2976 RMK A01 T01770050  RH  043%=      5-min Rain = 0
KSP2 090028Z 26018KT 18/05 A2976 RMK A01 T01770050  RH  043%=      5-min Rain = 0
KSP2 090029Z 25016KT 18/05 A2976 RMK A01 T01770050  RH  043%=      5-min Rain = 0
KSP2 090030Z 25018KT 18/05 A2976 RMK A01 T01770050  RH  043%=      5-min Rain = 0
KSP2 090031Z 25017KT 18/05 A2976 RMK A01 T01760049  RH  043%=      5-min Rain = 0
KSP2 090032Z 26018KT 18/05 A2976 RMK A01 T01770049  RH  043%=      5-min Rain = 0
KSP2 090033Z 25015KT 18/05 A2976 RMK A01 T01760049  RH  043%=      5-min Rain = 0
KSP2 090034Z 25017KT 18/05 A2976 RMK A01 T01760049  RH  043%=      5-min Rain = 0
KSP2 090035Z 25020KT 18/05 A2976 RMK A01 T01760049  RH  043%=      5-min Rain = 0
KSP2 090036Z 25018KT 18/05 A2976 RMK A01 T01760049  RH  043%=      5-min Rain = 0
KSP2 090037Z 25016G21KT 18/05 A2976 RMK A01 T01760049  RH  043%=      5-min Rain = 0
KSP2 090038Z 25018KT 18/05 A2976 RMK A01 T01750049  RH  043%=      5-min Rain = 0
KSP2 090039Z 25017KT 18/05 A2976 RMK A01 T01750049  RH  043%=      5-min Rain = 0
KSP2 090040Z 25015KT 18/05 A2976 RMK A01 T01750049  RH  043%=      5-min Rain = 0
KSP2 090041Z 25016KT 17/05 A2977 RMK A01 T01740049  RH  043%=      5-min Rain = 0
KSP2 090042Z 25015KT 17/05 A2977 RMK A01 T01740049  RH  044%=      5-min Rain = 0
KSP2 090043Z 25016G21KT 17/05 A2977 RMK A01 T01730049  RH  044%=      5-min Rain = 0
KSP2 090044Z 25015KT 17/05 A2977 RMK A01 T01730049  RH  044%=      5-min Rain = 0
KSP2 090045Z 25016KT 17/05 A2977 RMK A01 T01730049  RH  044%=      5-min Rain = 0
KSP2 090046Z 25015KT 17/05 A2977 RMK A01 T01720049  RH  044%=      5-min Rain = 0
KSP2 090047Z 25016KT 17/05 A2977 RMK A01 T01720049  RH  044%=      5-min Rain = 0
KSP2 090048Z 25017KT 17/05 A2977 RMK A01 T01720049  RH  044%=      5-min Rain = 0
KSP2 090049Z 25017KT 17/05 A2977 RMK A01 T01720049  RH  044%=      5-min Rain = 0
KSP2 090050Z 25016KT 17/05 A2977 RMK A01 T01720049  RH  044%=      5-min Rain = 0
KSP2 090051Z 25016KT 17/05 A2976 RMK A01 T01720049  RH  044%=      5-min Rain = 0
KSP2 090052Z 25014KT 17/05 A2976 RMK A01 T01720049  RH  044%=      5-min Rain = 0
KSP2 090053Z 25017KT 17/05 A2976 RMK A01 T01710049  RH  044%=      5-min Rain = 0
KSP2 090054Z 25018G23KT 17/05 A2976 RMK A01 T01720049  RH  044%=      5-min Rain = 0
KSP2 090055Z 25016KT 17/05 A2977 RMK A01 T01720049  RH  044%=      5-min Rain = 0
KSP2 090056Z 25017G22KT 17/05 A2977 RMK A01 T01720048  RH  044%=      5-min Rain = 0
KSP2 090057Z 25016KT 17/05 A2977 RMK A01 T01720049  RH  044%=      5-min Rain = 0
KSP2 090058Z 24018G24KT 17/05 A2977 RMK A01 T01720049  RH  044%=      5-min Rain = 0
KSP2 090059Z 24015G20KT 17/05 A2977 RMK A01 T01710048  RH  044%=      5-min Rain = 0
KSP2 090100Z 25016G21KT 17/05 A2976 RMK A01 T01700048  RH  044%=      5-min Rain = 0
KSP2 090101Z 24013KT 17/05 A2976 RMK A01 T01690048  RH  045%=      5-min Rain = 0
KSP2 090102Z 25017KT 17/05 A2976 RMK A01 T01670048  RH  045%=      5-min Rain = 0
KSP2 090103Z 24014KT 17/05 A2977 RMK A01 T01660048  RH  045%=      5-min Rain = 0
KSP2 090104Z 24017KT 17/05 A2977 RMK A01 T01660048  RH  046%=      5-min Rain = 0
KSP2 090105Z 24015KT 17/05 A2977 RMK A01 T01660049  RH  046%=      5-min Rain = 0
KSP2 090106Z 24015KT 17/05 A2977 RMK A01 T01650048  RH  046%=      5-min Rain = 0
KSP2 090107Z 24015KT 17/05 A2977 RMK A01 T01650049  RH  046%=      5-min Rain = 0
KSP2 090108Z 24017KT 17/05 A2977 RMK A01 T01650048  RH  046%=      5-min Rain = 0
KSP2 090109Z 24016KT 17/05 A2977 RMK A01 T01650049  RH  046%=      5-min Rain = 0
KSP2 090110Z 24016G22KT 17/05 A2977 RMK A01 T01650049  RH  046%=      5-min Rain = 0
KSP2 090111Z 24018KT 17/05 A2977 RMK A01 T01650049  RH  046%=      5-min Rain = 0
KSP2 090112Z 24017KT 17/05 A2977 RMK A01 T01650049  RH  046%=      5-min Rain = 0
KSP2 090113Z 25018KT 17/05 A2977 RMK A01 T01660049  RH  046%=      5-min Rain = 0
KSP2 090114Z 25017G22KT 17/05 A2977 RMK A01 T01650049  RH  046%=      5-min Rain = 0
KSP2 090115Z 24017G24KT 17/05 A2977 RMK A01 T01660049  RH  046%=      5-min Rain = 0
KSP2 090116Z 24017G22KT 17/05 A2977 RMK A01 T01660049  RH  046%=      5-min Rain = 0
KSP2 090117Z 25016KT 17/05 A2977 RMK A01 T01660049  RH  046%=      5-min Rain = 0
KSP2 090118Z 24017KT 17/05 A2977 RMK A01 T01660049  RH  046%=      5-min Rain = 0
KSP2 090119Z 24015KT 17/05 A2977 RMK A01 T01650049  RH  046%=      5-min Rain = 0
KSP2 090120Z 24014KT 17/05 A2977 RMK A01 T01650049  RH  046%=      5-min Rain = 0
KSP2 090121Z 24015G20KT 16/05 A2977 RMK A01 T01640049  RH  046%=      5-min Rain = 0
KSP2 090122Z 24016G21KT 16/05 A2977 RMK A01 T01640049  RH  046%=      5-min Rain = 0
KSP2 090123Z 25018G23KT 16/05 A2977 RMK A01 T01640049  RH  046%=      5-min Rain = 0
KSP2 090124Z 25016KT 17/05 A2977 RMK A01 T01650049  RH  046%=      5-min Rain = 0
KSP2 090125Z 25018KT 17/05 A2977 RMK A01 T01660049  RH  046%=      5-min Rain = 0
KSP2 090126Z 25016KT 17/05 A2977 RMK A01 T01650049  RH  046%=      5-min Rain = 0
KSP2 090127Z 24018KT 17/05 A2977 RMK A01 T01660049  RH  046%=      5-min Rain = 0
KSP2 090128Z 25016KT 17/05 A2977 RMK A01 T01670049  RH  046%=      5-min Rain = 0
KSP2 090129Z 24018KT 17/05 A2977 RMK A01 T01670049  RH  046%=      5-min Rain = 0
KSP2 090130Z 25019KT 17/05 A2978 RMK A01 T01660049  RH  046%=      5-min Rain = 0
KSP2 090131Z 25020G26KT 17/05 A2978 RMK A01 T01670049  RH  046%=      5-min Rain = 0
KSP2 090132Z 25017G22KT 17/05 A2978 RMK A01 T01670049  RH  046%=      5-min Rain = 0
KSP2 090133Z 25017KT 17/05 A2977 RMK A01 T01670049  RH  046%=      5-min Rain = 0
KSP2 090134Z 24016KT 17/05 A2977 RMK A01 T01660048  RH  046%=      5-min Rain = 0
KSP2 090135Z 25018G23KT 17/05 A2977 RMK A01 T01660049  RH  046%=      5-min Rain = 0
KSP2 090136Z 25018KT 17/05 A2977 RMK A01 T01670049  RH  046%=      5-min Rain = 0
KSP2 090137Z 26019KT 17/05 A2978 RMK A01 T01670049  RH  046%=      5-min Rain = 0
KSP2 090138Z 25018G24KT 17/05 A2978 RMK A01 T01670049  RH  046%=      5-min Rain = 0
KSP2 090139Z 25019KT 17/05 A2977 RMK A01 T01670049  RH  046%=      5-min Rain = 0
KSP2 090140Z 25018KT 17/05 A2977 RMK A01 T01670049  RH  046%=      5-min Rain = 0
KSP2 090141Z 25017KT 17/05 A2977 RMK A01 T01660049  RH  046%=      5-min Rain = 0
KSP2 090142Z 25017KT 17/05 A2977 RMK A01 T01660049  RH  046%=      5-min Rain = 0
KSP2 090143Z 25017G22KT 17/05 A2977 RMK A01 T01660049  RH  046%=      5-min Rain = 0
KSP2 090144Z 25015KT 17/05 A2977 RMK A01 T01650049  RH  046%=      5-min Rain = 0
KSP2 090145Z 25016KT 16/05 A2977 RMK A01 T01640049  RH  046%=      5-min Rain = 0
KSP2 090146Z 24016G21KT 16/05 A2977 RMK A01 T01640049  RH  046%=      5-min Rain = 0
KSP2 090147Z 25018G23KT 16/05 A2977 RMK A01 T01640049  RH  047%=      5-min Rain = 0
KSP2 090148Z 25015KT 16/05 A2977 RMK A01 T01640049  RH  047%=      5-min Rain = 0
KSP2 090149Z 25018KT 16/05 A2977 RMK A01 T01630049  RH  047%=      5-min Rain = 0
KSP2 090150Z 25017G23KT 16/05 A2977 RMK A01 T01620049  RH  047%=      5-min Rain = 0
KSP2 090151Z 24015KT 16/05 A2977 RMK A01 T01620049  RH  047%=      5-min Rain = 0
KSP2 090152Z 25016KT 16/05 A2977 RMK A01 T01610050  RH  048%=      5-min Rain = 0
KSP2 090153Z 25017KT 16/05 A2977 RMK A01 T01600050  RH  048%=      5-min Rain = 0
KSP2 090154Z 25018KT 16/05 A2977 RMK A01 T01600050  RH  048%=      5-min Rain = 0
KSP2 090155Z 25019G25KT 16/05 A2977 RMK A01 T01600050  RH  048%=      5-min Rain = 0
KSP2 090156Z 25019G24KT 16/05 A2977 RMK A01 T01610050  RH  048%=      5-min Rain = 0
KSP2 090157Z 25016G22KT 16/05 A2977 RMK A01 T01610050  RH  048%=      5-min Rain = 0
KSP2 090158Z 25019G24KT 16/05 A2977 RMK A01 T01610050  RH  048%=      5-min Rain = 0
KSP2 090159Z 24020KT 16/05 A2977 RMK A01 T01600050  RH  048%=      5-min Rain = 0
KSP2 090200Z 25020G25KT 16/05 A2977 RMK A01 T01600049  RH  048%=      5-min Rain = 0
KSP2 090201Z 25021KT 16/05 A2977 RMK A01 T01600049  RH  048%=      5-min Rain = 0
KSP2 090202Z 25018G23KT 16/05 A2977 RMK A01 T01600050  RH  048%=      5-min Rain = 0
KSP2 090203Z 25020KT 16/05 A2977 RMK A01 T01600049  RH  048%=      5-min Rain = 0
KSP2 090204Z 25022G27KT 16/05 A2977 RMK A01 T01610050  RH  048%=      5-min Rain = 0
KSP2 090205Z 24018G25KT 16/05 A2977 RMK A01 T01610050  RH  048%=      5-min Rain = 0
KSP2 090206Z 25018G25KT 16/05 A2977 RMK A01 T01600049  RH  048%=      5-min Rain = 0
KSP2 090207Z 25019G24KT 16/05 A2977 RMK A01 T01590049  RH  048%=      5-min Rain = 0
KSP2 090208Z 24020G25KT 16/05 A2977 RMK A01 T01590049  RH  048%=      5-min Rain = 0
KSP2 090209Z 25018KT 16/05 A2977 RMK A01 T01590049  RH  048%=      5-min Rain = 0
KSP2 090210Z 24021KT 16/05 A2977 RMK A01 T01590049  RH  048%=      5-min Rain = 0
KSP2 090211Z 24018KT 16/05 A2977 RMK A01 T01590049  RH  048%=      5-min Rain = 0
KSP2 090212Z 25020G27KT 16/05 A2977 RMK A01 T01580049  RH  048%=      5-min Rain = 0
KSP2 090213Z 25020G26KT 16/05 A2977 RMK A01 T01580049  RH  048%=      5-min Rain = 0
KSP2 090214Z 25020KT 16/05 A2978 RMK A01 T01580048  RH  048%=      5-min Rain = 0
KSP2 090215Z 25020KT 16/05 A2978 RMK A01 T01570048  RH  048%=      5-min Rain = 0
KSP2 090216Z 25021KT 16/05 A2978 RMK A01 T01580048  RH  048%=      5-min Rain = 0
KSP2 090217Z 25024G29KT 16/05 A2977 RMK A01 T01590048  RH  048%=      5-min Rain = 0
KSP2 090218Z 25018G24KT 16/05 A2977 RMK A01 T01590048  RH  047%=      5-min Rain = 0
KSP2 090219Z 25017KT 16/05 A2977 RMK A01 T01590047  RH  047%=      5-min Rain = 0
KSP2 090220Z 25017G24KT 16/05 A2977 RMK A01 T01580047  RH  048%=      5-min Rain = 0
KSP2 090221Z 25022KT 16/05 A2977 RMK A01 T01580047  RH  048%=      5-min Rain = 0
KSP2 090222Z 25018G23KT 16/05 A2978 RMK A01 T01580047  RH  048%=      5-min Rain = 0
KSP2 090223Z 24020KT 16/05 A2978 RMK A01 T01580047  RH  048%=      5-min Rain = 0
KSP2 090224Z 24021G27KT 16/05 A2977 RMK A01 T01580047  RH  048%=      5-min Rain = 0
KSP2 090225Z 25019KT 16/05 A2978 RMK A01 T01570047  RH  048%=      5-min Rain = 0
KSP2 090226Z 25019G26KT 16/05 A2977 RMK A01 T01570047  RH  048%=      5-min Rain = 0
KSP2 090227Z 25018G24KT 16/05 A2977 RMK A01 T01570046  RH  048%=      5-min Rain = 0
KSP2 090228Z 25020G26KT 16/05 A2977 RMK A01 T01560046  RH  048%=      5-min Rain = 0
KSP2 090229Z 25024KT 16/05 A2977 RMK A01 T01560046  RH  048%=      5-min Rain = 0
KSP2 090230Z 25020G25KT 16/05 A2977 RMK A01 T01570046  RH  048%=      5-min Rain = 0
KSP2 090231Z 24020KT 16/05 A2977 RMK A01 T01560046  RH  048%=      5-min Rain = 0
KSP2 090232Z 25022G28KT 16/05 A2976 RMK A01 T01550045  RH  048%=      5-min Rain = 0
KSP2 090233Z 25019KT 16/05 A2976 RMK A01 T01550045  RH  048%=      5-min Rain = 0
KSP2 090234Z 25019G24KT 16/05 A2976 RMK A01 T01550045  RH  048%=      5-min Rain = 0
KSP2 090235Z 25017KT 16/05 A2977 RMK A01 T01550045  RH  048%=      5-min Rain = 0
KSP2 090236Z 25017G22KT 15/05 A2977 RMK A01 T01540045  RH  048%=      5-min Rain = 0
KSP2 090237Z 25021G26KT 15/05 A2977 RMK A01 T01530045  RH  048%=      5-min Rain = 0
KSP2 090238Z 25019KT 15/05 A2977 RMK A01 T01530045  RH  048%=      5-min Rain = 0
KSP2 090239Z 25018G25KT 15/05 A2977 RMK A01 T01530045  RH  048%=      5-min Rain = 0
KSP2 090240Z 25018G23KT 15/05 A2977 RMK A01 T01530045  RH  049%=      5-min Rain = 0
KSP2 090241Z 25022KT 15/05 A2977 RMK A01 T01530045  RH  049%=      5-min Rain = 0
KSP2 090242Z 25022G27KT 15/05 A2977 RMK A01 T01530045  RH  048%=      5-min Rain = 0
KSP2 090243Z 25021G27KT 15/05 A2977 RMK A01 T01530045  RH  048%=      5-min Rain = 0
KSP2 090244Z 24018G25KT 15/05 A2977 RMK A01 T01530045  RH  048%=      5-min Rain = 0
KSP2 090245Z 25018G24KT 15/04 A2977 RMK A01 T01520044  RH  048%=      5-min Rain = 0
KSP2 090246Z 25018G23KT 15/04 A2976 RMK A01 T01520044  RH  049%=      5-min Rain = 0
KSP2 090247Z 25019G26KT 15/04 A2976 RMK A01 T01510044  RH  049%=      5-min Rain = 0
KSP2 090248Z 25020G25KT 15/04 A2976 RMK A01 T01510044  RH  049%=      5-min Rain = 0
KSP2 090249Z 25019KT 15/04 A2977 RMK A01 T01510043  RH  048%=      5-min Rain = 0
KSP2 090250Z 25021G26KT 15/04 A2976 RMK A01 T01510042  RH  048%=      5-min Rain = 0
KSP2 090251Z 25020G26KT 15/04 A2976 RMK A01 T01520042  RH  048%=      5-min Rain = 0
KSP2 090252Z 24021KT 15/04 A2976 RMK A01 T01520041  RH  048%=      5-min Rain = 0
KSP2 090253Z 24021KT 15/04 A2976 RMK A01 T01520041  RH  048%=      5-min Rain = 0
KSP2 090254Z 25019G24KT 15/04 A2976 RMK A01 T01510041  RH  048%=      5-min Rain = 0
KSP2 090255Z 24019G25KT 15/04 A2976 RMK A01 T01510041  RH  048%=      5-min Rain = 0
KSP2 090256Z 24020G27KT 15/04 A2976 RMK A01 T01510041  RH  048%=      5-min Rain = 0
KSP2 090257Z 24019G26KT 15/04 A2976 RMK A01 T01510040  RH  048%=      5-min Rain = 0
KSP2 090258Z 25019G25KT 15/04 A2976 RMK A01 T01500040  RH  048%=      5-min Rain = 0
KSP2 090259Z 25021KT 15/04 A2976 RMK A01 T01500040  RH  048%=      5-min Rain = 0
KSP2 090300Z 25020KT 15/04 A2977 RMK A01 T01490039  RH  048%=      5-min Rain = 0
KSP2 090301Z 25020G25KT 15/04 A2977 RMK A01 T01500039  RH  047%=      5-min Rain = 0
KSP2 090302Z 25020KT 15/04 A2977 RMK A01 T01490038  RH  047%=      5-min Rain = 0
KSP2 090303Z 25019G25KT 15/04 A2977 RMK A01 T01490037  RH  047%=      5-min Rain = 0
KSP2 090304Z 25022KT 15/04 A2977 RMK A01 T01490036  RH  047%=      5-min Rain = 0
KSP2 090305Z 25020KT 15/04 A2977 RMK A01 T01500036  RH  046%=      5-min Rain = 0
KSP2 090306Z 26017KT 15/04 A2977 RMK A01 T01500036  RH  046%=      5-min Rain = 0
KSP2 090307Z 26021G27KT 15/04 A2977 RMK A01 T01490035  RH  046%=      5-min Rain = 0
KSP2 090308Z 25018G25KT 15/03 A2977 RMK A01 T01490033  RH  046%=      5-min Rain = 0
KSP2 090309Z 25021KT 15/03 A2977 RMK A01 T01500033  RH  045%=      5-min Rain = 0
KSP2 090310Z 25020G25KT 15/03 A2977 RMK A01 T01500032  RH  045%=      5-min Rain = 0
KSP2 090311Z 25023KT 15/03 A2977 RMK A01 T01500032  RH  045%=      5-min Rain = 0
KSP2 090312Z 25021G26KT 15/03 A2977 RMK A01 T01500031  RH  045%=      5-min Rain = 0
KSP2 090313Z 25023KT 15/03 A2977 RMK A01 T01500031  RH  045%=      5-min Rain = 0
KSP2 090314Z 25020G26KT 15/03 A2977 RMK A01 T01500030  RH  044%=      5-min Rain = 0
KSP2 090315Z 25021G26KT 15/03 A2977 RMK A01 T01500029  RH  044%=      5-min Rain = 0
KSP2 090316Z 25023G30KT 15/03 A2977 RMK A01 T01500028  RH  044%=      5-min Rain = 0
KSP2 090317Z 25024G30KT 15/03 A2976 RMK A01 T01510028  RH  044%=      5-min Rain = 0
KSP2 090318Z 25020G27KT 15/03 A2977 RMK A01 T01510028  RH  043%=      5-min Rain = 0
KSP2 090319Z 25020KT 15/03 A2977 RMK A01 T01510028  RH  043%=      5-min Rain = 0
KSP2 090320Z 24022KT 15/03 A2976 RMK A01 T01510027  RH  043%=      5-min Rain = 0
KSP2 090321Z 25024KT 15/03 A2977 RMK A01 T01510027  RH  043%=      5-min Rain = 0
KSP2 090322Z 25022G28KT 15/03 A2977 RMK A01 T01520027  RH  043%=      5-min Rain = 0
KSP2 090323Z 25019G24KT 15/03 A2977 RMK A01 T01520027  RH  043%=      5-min Rain = 0
KSP2 090324Z 25021G27KT 15/03 A2977 RMK A01 T01520027  RH  043%=      5-min Rain = 0
KSP2 090325Z 25019KT 15/03 A2977 RMK A01 T01510027  RH  043%=      5-min Rain = 0
KSP2 090326Z 25024G30KT 15/03 A2977 RMK A01 T01510027  RH  043%=      5-min Rain = 0
KSP2 090327Z 25022G29KT 15/03 A2977 RMK A01 T01510027  RH  043%=      5-min Rain = 0
KSP2 090328Z 25021G27KT 15/03 A2977 RMK A01 T01510027  RH  043%=      5-min Rain = 0
KSP2 090329Z 25021KT 15/03 A2978 RMK A01 T01510028  RH  043%=      5-min Rain = 0
KSP2 090330Z 25021G27KT 15/03 A2977 RMK A01 T01500028  RH  044%=      5-min Rain = 0
KSP2 090331Z 26017G23KT 15/03 A2977 RMK A01 T01500028  RH  044%=      5-min Rain = 0
KSP2 090332Z 25018G25KT 15/03 A2977 RMK A01 T01490028  RH  044%=      5-min Rain = 0
KSP2 090333Z 25023G28KT 15/03 A2977 RMK A01 T01490028  RH  044%=      5-min Rain = 0
KSP2 090334Z 25021G26KT 15/03 A2977 RMK A01 T01490029  RH  044%=      5-min Rain = 0
KSP2 090335Z 25020KT 15/03 A2977 RMK A01 T01490029  RH  044%=      5-min Rain = 0
KSP2 090336Z 25019G24KT 15/03 A2977 RMK A01 T01490029  RH  044%=      5-min Rain = 0
KSP2 090337Z 25016KT 15/03 A2977 RMK A01 T01480029  RH  045%=      5-min Rain = 0
KSP2 090338Z 25023G29KT 15/03 A2977 RMK A01 T01480029  RH  045%=      5-min Rain = 0
KSP2 090339Z 25023G29KT 15/03 A2977 RMK A01 T01480029  RH  045%=      5-min Rain = 0
KSP2 090340Z 25021KT 15/03 A2977 RMK A01 T01490029  RH  045%=      5-min Rain = 0
KSP2 090341Z 25020G25KT 15/03 A2977 RMK A01 T01490030  RH  045%=      5-min Rain = 0
KSP2 090342Z 25020G25KT 15/03 A2977 RMK A01 T01480030  RH  045%=      5-min Rain = 0
KSP2 090343Z 26020KT 15/03 A2977 RMK A01 T01480030  RH  045%=      5-min Rain = 0
KSP2 090344Z 25022KT 15/03 A2977 RMK A01 T01470030  RH  045%=      5-min Rain = 0
KSP2 090345Z 25020KT 15/03 A2977 RMK A01 T01480030  RH  045%=      5-min Rain = 0
KSP2 090346Z 25017KT 15/03 A2977 RMK A01 T01470030  RH  045%=      5-min Rain = 0
KSP2 090347Z 26018G24KT 15/03 A2977 RMK A01 T01460030  RH  046%=      5-min Rain = 0
KSP2 090348Z 26019KT 15/03 A2977 RMK A01 T01460030  RH  046%=      5-min Rain = 0
KSP2 090349Z 26017G22KT 15/03 A2977 RMK A01 T01460030  RH  046%=      5-min Rain = 0
KSP2 090350Z 26019G24KT 15/03 A2977 RMK A01 T01460030  RH  046%=      5-min Rain = 0
KSP2 090351Z 26021KT 15/03 A2977 RMK A01 T01460030  RH  046%=      5-min Rain = 0
KSP2 090352Z 26019G24KT 15/03 A2977 RMK A01 T01460031  RH  046%=      5-min Rain = 0
KSP2 090353Z 26019G24KT 15/03 A2977 RMK A01 T01460031  RH  046%=      5-min Rain = 0
KSP2 090354Z 26019G25KT 15/03 A2977 RMK A01 T01460031  RH  046%=      5-min Rain = 0
KSP2 090355Z 25018KT 15/03 A2977 RMK A01 T01460031  RH  046%=      5-min Rain = 0
KSP2 090356Z 25019KT 15/03 A2977 RMK A01 T01450030  RH  046%=      5-min Rain = 0
KSP2 090357Z 25017KT 15/03 A2977 RMK A01 T01450030  RH  046%=      5-min Rain = 0
KSP2 090358Z 26018G25KT 14/03 A2977 RMK A01 T01440030  RH  046%=      5-min Rain = 0
KSP2 090359Z 25018G24KT 14/03 A2977 RMK A01 T01440030  RH  046%=      5-min Rain = 0
KSP2 090400Z 26021G27KT 14/03 A2976 RMK A01 T01440030  RH  046%=      5-min Rain = 0
KSP2 090401Z 26023KT 15/03 A2977 RMK A01 T01450030  RH  046%=      5-min Rain = 0
KSP2 090402Z 25021KT 15/03 A2977 RMK A01 T01450029  RH  046%=      5-min Rain = 0
KSP2 090403Z 25018G23KT 15/03 A2977 RMK A01 T01450029  RH  046%=      5-min Rain = 0
KSP2 090404Z 25023G29KT 14/03 A2977 RMK A01 T01440030  RH  046%=      5-min Rain = 0
KSP2 090405Z 26021KT 15/03 A2977 RMK A01 T01450029  RH  046%=      5-min Rain = 0
KSP2 090406Z 25019KT 15/03 A2976 RMK A01 T01450029  RH  046%=      5-min Rain = 0
KSP2 090407Z 25019G24KT 14/03 A2976 RMK A01 T01440030  RH  046%=      5-min Rain = 0
KSP2 090408Z 25019KT 14/03 A2976 RMK A01 T01440030  RH  046%=      5-min Rain = 0
KSP2 090409Z 25020G25KT 14/03 A2977 RMK A01 T01430030  RH  047%=      5-min Rain = 0
KSP2 090410Z 26019KT 14/03 A2977 RMK A01 T01430030  RH  047%=      5-min Rain = 0
KSP2 090411Z 26018KT 14/03 A2976 RMK A01 T01420030  RH  047%=      5-min Rain = 0
KSP2 090412Z 26019KT 14/03 A2976 RMK A01 T01420030  RH  047%=      5-min Rain = 0
KSP2 090413Z 26020G25KT 14/03 A2976 RMK A01 T01420030  RH  047%=      5-min Rain = 0
KSP2 090414Z 26021KT 14/03 A2976 RMK A01 T01420030  RH  047%=      5-min Rain = 0
KSP2 090415Z 26020G25KT 14/03 A2976 RMK A01 T01420030  RH  047%=      5-min Rain = 0
KSP2 090416Z 26017KT 14/03 A2976 RMK A01 T01410031  RH  047%=      5-min Rain = 0
KSP2 090417Z 26015G22KT 14/03 A2977 RMK A01 T01400031  RH  048%=      5-min Rain = 0
KSP2 090418Z 26019G24KT 14/03 A2977 RMK A01 T01390031  RH  048%=      5-min Rain = 0
KSP2 090419Z 26019KT 14/03 A2976 RMK A01 T01390031  RH  048%=      5-min Rain = 0
KSP2 090420Z 25017G22KT 14/03 A2976 RMK A01 T01390031  RH  048%=      5-min Rain = 0
KSP2 090421Z 26017G22KT 14/03 A2976 RMK A01 T01390031  RH  048%=      5-min Rain = 0
KSP2 090422Z 26018G25KT 14/03 A2977 RMK A01 T01380031  RH  048%=      5-min Rain = 0
KSP2 090423Z 25019G24KT 14/03 A2976 RMK A01 T01380031  RH  048%=      5-min Rain = 0
KSP2 090424Z 26019G24KT 14/03 A2977 RMK A01 T01390032  RH  048%=      5-min Rain = 0
KSP2 090425Z 26021KT 14/03 A2977 RMK A01 T01380032  RH  048%=      5-min Rain = 0
KSP2 090426Z 26019G24KT 14/03 A2977 RMK A01 T01380032  RH  048%=      5-min Rain = 0
KSP2 090427Z 25018G24KT 14/03 A2977 RMK A01 T01380032  RH  049%=      5-min Rain = 0
KSP2 090428Z 25018KT 14/03 A2977 RMK A01 T01380032  RH  049%=      5-min Rain = 0
KSP2 090429Z 25019KT 14/03 A2977 RMK A01 T01380032  RH  049%=      5-min Rain = 0
KSP2 090430Z 25019KT 14/03 A2977 RMK A01 T01370032  RH  049%=      5-min Rain = 0
KSP2 090431Z 26018KT 14/03 A2977 RMK A01 T01370033  RH  049%=      5-min Rain = 0
KSP2 090432Z 26020KT 14/03 A2977 RMK A01 T01360033  RH  049%=      5-min Rain = 0
KSP2 090433Z 26019G24KT 14/03 A2977 RMK A01 T01360033  RH  050%=      5-min Rain = 0
KSP2 090434Z 25019KT 14/03 A2977 RMK A01 T01360033  RH  050%=      5-min Rain = 0
KSP2 090435Z 26019KT 14/03 A2977 RMK A01 T01360033  RH  050%=      5-min Rain = 0
KSP2 090436Z 25018KT 14/03 A2977 RMK A01 T01360033  RH  050%=      5-min Rain = 0
KSP2 090437Z 25018KT 14/03 A2977 RMK A01 T01360033  RH  050%=      5-min Rain = 0
KSP2 090438Z 25018KT 14/03 A2977 RMK A01 T01350033  RH  050%=      5-min Rain = 0
KSP2 090439Z 25017KT 14/03 A2977 RMK A01 T01350034  RH  050%=      5-min Rain = 0
KSP2 090440Z 25019G25KT 14/03 A2977 RMK A01 T01350034  RH  050%=      5-min Rain = 0
KSP2 090441Z 25017G22KT 14/03 A2977 RMK A01 T01350034  RH  050%=      5-min Rain = 0
KSP2 090442Z 25018G23KT 13/03 A2976 RMK A01 T01340034  RH  051%=      5-min Rain = 0
KSP2 090443Z 25021KT 14/04 A2976 RMK A01 T01350035  RH  051%=      5-min Rain = 0
KSP2 090444Z 25021KT 13/03 A2977 RMK A01 T01340034  RH  051%=      5-min Rain = 0
KSP2 090445Z 26021G26KT 14/04 A2977 RMK A01 T01350035  RH  051%=      5-min Rain = 0
KSP2 090446Z 25021KT 14/04 A2977 RMK A01 T01360035  RH  051%=      5-min Rain = 0
KSP2 090447Z 25020G25KT 14/04 A2977 RMK A01 T01360035  RH  050%=      5-min Rain = 0
KSP2 090448Z 25017KT 14/04 A2977 RMK A01 T01360036  RH  051%=      5-min Rain = 0
KSP2 090449Z 25016KT 14/04 A2977 RMK A01 T01350035  RH  051%=      5-min Rain = 0
KSP2 090450Z 25016KT 13/04 A2977 RMK A01 T01330035  RH  051%=      5-min Rain = 0
KSP2 090451Z 25017KT 13/04 A2977 RMK A01 T01330035  RH  052%=      5-min Rain = 0
KSP2 090452Z 25017KT 13/04 A2977 RMK A01 T01330036  RH  052%=      5-min Rain = 0
KSP2 090453Z 25017KT 13/04 A2977 RMK A01 T01320036  RH  052%=      5-min Rain = 0
KSP2 090454Z 25016KT 13/04 A2977 RMK A01 T01320036  RH  052%=      5-min Rain = 0
KSP2 090455Z 25015KT 13/04 A2977 RMK A01 T01310036  RH  052%=      5-min Rain = 0
KSP2 090456Z 25015G20KT 13/04 A2977 RMK A01 T01300036  RH  053%=      5-min Rain = 0
KSP2 090457Z 25015KT 13/04 A2977 RMK A01 T01290036  RH  053%=      5-min Rain = 0
KSP2 090458Z 25015KT 13/04 A2977 RMK A01 T01280036  RH  053%=      5-min Rain = 0
KSP2 090459Z 24013KT 13/04 A2977 RMK A01 T01270036  RH  054%=      5-min Rain = 0
KSP2 090500Z 25015KT 13/04 A2977 RMK A01 T01270036  RH  054%=      5-min Rain = 0
KSP2 090501Z 24018KT 13/04 A2977 RMK A01 T01260036  RH  054%=      5-min Rain = 0
KSP2 090502Z 25013KT 13/04 A2977 RMK A01 T01260036  RH  054%=      5-min Rain = 0
KSP2 090503Z 24014KT 13/04 A2977 RMK A01 T01260036  RH  054%=      5-min Rain = 0
KSP2 090504Z 24017G22KT 13/04 A2977 RMK A01 T01260037  RH  055%=      5-min Rain = 0
KSP2 090505Z 24015G20KT 13/04 A2977 RMK A01 T01260037  RH  055%=      5-min Rain = 0
KSP2 090506Z 25015KT 13/04 A2977 RMK A01 T01250037  RH  055%=      5-min Rain = 0
KSP2 090507Z 24016G21KT 13/04 A2977 RMK A01 T01250037  RH  055%=      5-min Rain = 0
KSP2 090508Z 25016KT 13/04 A2977 RMK A01 T01250038  RH  055%=      5-min Rain = 0
KSP2 090509Z 25016KT 12/04 A2977 RMK A01 T01240037  RH  055%=      5-min Rain = 0
KSP2 090510Z 25016KT 12/04 A2977 RMK A01 T01240038  RH  055%=      5-min Rain = 0
KSP2 090511Z 25018KT 13/04 A2977 RMK A01 T01250038  RH  055%=      5-min Rain = 0
KSP2 090512Z 25015KT 13/04 A2977 RMK A01 T01250038  RH  055%=      5-min Rain = 0
KSP2 090513Z 25015KT 13/04 A2977 RMK A01 T01250038  RH  055%=      5-min Rain = 0
KSP2 090514Z 25015G21KT 12/04 A2977 RMK A01 T01240038  RH  056%=      5-min Rain = 0
KSP2 090515Z 25017G22KT 12/04 A2977 RMK A01 T01240038  RH  056%=      5-min Rain = 0
KSP2 090516Z 25017KT 12/04 A2977 RMK A01 T01240038  RH  056%=      5-min Rain = 0
KSP2 090517Z 25017KT 13/04 A2977 RMK A01 T01250038  RH  056%=      5-min Rain = 0
KSP2 090518Z 25016KT 13/04 A2977 RMK A01 T01250038  RH  055%=      5-min Rain = 0
KSP2 090519Z 25017KT 13/04 A2977 RMK A01 T01250038  RH  055%=      5-min Rain = 0
KSP2 090520Z 25015KT 13/04 A2977 RMK A01 T01250038  RH  056%=      5-min Rain = 0
KSP2 090521Z 25016KT 13/04 A2977 RMK A01 T01250039  RH  056%=      5-min Rain = 0
KSP2 090522Z 25016KT 12/04 A2977 RMK A01 T01240038  RH  056%=      5-min Rain = 0
KSP2 090523Z 25016KT 12/04 A2977 RMK A01 T01240038  RH  056%=      5-min Rain = 0
KSP2 090524Z 26013KT 12/04 A2977 RMK A01 T01240038  RH  056%=      5-min Rain = 0
KSP2 090525Z 25013KT 12/04 A2978 RMK A01 T01230038  RH  056%=      5-min Rain = 0
KSP2 090526Z 26014KT 12/04 A2978 RMK A01 T01220038  RH  057%=      5-min Rain = 0
KSP2 090527Z 26014KT 12/04 A2977 RMK A01 T01220038  RH  057%=      5-min Rain = 0
KSP2 090528Z 26015KT 12/04 A2977 RMK A01 T01220038  RH  056%=      5-min Rain = 0
KSP2 090529Z 26015KT 12/04 A2977 RMK A01 T01220038  RH  056%=      5-min Rain = 0
KSP2 090530Z 25014G20KT 12/04 A2977 RMK A01 T01230038  RH  056%=      5-min Rain = 0
KSP2 090531Z 25015KT 12/04 A2977 RMK A01 T01230038  RH  056%=      5-min Rain = 0
KSP2 090532Z 25014KT 12/04 A2977 RMK A01 T01240038  RH  056%=      5-min Rain = 0
KSP2 090533Z 25014KT 12/04 A2977 RMK A01 T01230038  RH  056%=      5-min Rain = 0
KSP2 090534Z 25016KT 12/04 A2977 RMK A01 T01230038  RH  056%=      5-min Rain = 0
KSP2 090535Z 25016KT 12/04 A2977 RMK A01 T01230038  RH  056%=      5-min Rain = 0
KSP2 090536Z 25016KT 12/04 A2977 RMK A01 T01230037  RH  056%=      5-min Rain = 0
KSP2 090537Z 25015KT 12/04 A2977 RMK A01 T01230037  RH  056%=      5-min Rain = 0
KSP2 090538Z 24013KT 12/04 A2977 RMK A01 T01230037  RH  056%=      5-min Rain = 0
KSP2 090539Z 24013KT 12/04 A2977 RMK A01 T01220037  RH  056%=      5-min Rain = 0
KSP2 090540Z 24013KT 12/04 A2977 RMK A01 T01200036  RH  056%=      5-min Rain = 0
KSP2 090541Z 24014KT 12/04 A2977 RMK A01 T01190036  RH  057%=      5-min Rain = 0
KSP2 090542Z 24014KT 12/04 A2977 RMK A01 T01190037  RH  057%=      5-min Rain = 0
KSP2 090543Z 25016G23KT 12/04 A2977 RMK A01 T01190037  RH  057%=      5-min Rain = 0
KSP2 090544Z 24014G19KT 12/04 A2977 RMK A01 T01200037  RH  057%=      5-min Rain = 0
KSP2 090545Z 24014KT 12/04 A2977 RMK A01 T01200037  RH  057%=      5-min Rain = 0
KSP2 090546Z 25015KT 12/04 A2977 RMK A01 T01200037  RH  057%=      5-min Rain = 0
KSP2 090547Z 25015KT 12/04 A2977 RMK A01 T01200037  RH  057%=      5-min Rain = 0
KSP2 090548Z 25017KT 12/04 A2977 RMK A01 T01200037  RH  057%=      5-min Rain = 0
KSP2 090549Z 24015KT 12/04 A2977 RMK A01 T01200037  RH  057%=      5-min Rain = 0
KSP2 090550Z 25016KT 12/04 A2977 RMK A01 T01200036  RH  057%=      5-min Rain = 0
KSP2 090551Z 25018KT 12/04 A2977 RMK A01 T01200036  RH  057%=      5-min Rain = 0
KSP2 090552Z 25018KT 12/04 A2977 RMK A01 T01200036  RH  056%=      5-min Rain = 0
KSP2 090553Z 25017KT 12/04 A2977 RMK A01 T01210036  RH  056%=      5-min Rain = 0
KSP2 090554Z 25019KT 12/04 A2977 RMK A01 T01220036  RH  056%=      5-min Rain = 0
KSP2 090555Z 25018KT 12/04 A2977 RMK A01 T01220036  RH  056%=      5-min Rain = 0
KSP2 090556Z 24016KT 12/04 A2977 RMK A01 T01210036  RH  056%=      5-min Rain = 0
KSP2 090557Z 25016G21KT 12/04 A2977 RMK A01 T01210036  RH  056%=      5-min Rain = 0
KSP2 090558Z 24015KT 12/04 A2977 RMK A01 T01210036  RH  056%=      5-min Rain = 0
KSP2 090559Z 25016G23KT 12/04 A2977 RMK A01 T01210036  RH  056%=      5-min Rain = 0

Page generated in 0.1425 seconds.